Observation data for New Home on 07/19/2019      Previous  Date  Next       Current Mesonet Observations  Soil Data  Daily Summary Page  Observations in Plain Language
KNH1 190500Z 18014KT 30/16 A2995 RMK A01 T03000161  RH  043%=      5-min Rain = 0
KNH1 190501Z 18012KT 30/16 A2995 RMK A01 T02990161  RH  043%=      5-min Rain = 0
KNH1 190502Z 18012KT 30/16 A2995 RMK A01 T02990160  RH  043%=      5-min Rain = 0
KNH1 190503Z 18015KT 30/16 A2995 RMK A01 T02990161  RH  043%=      5-min Rain = 0
KNH1 190504Z 18015KT 30/16 A2995 RMK A01 T02990161  RH  043%=      5-min Rain = 0
KNH1 190505Z 18015KT 30/16 A2995 RMK A01 T02990161  RH  043%=      5-min Rain = 0
KNH1 190506Z 18015G21KT 30/16 A2995 RMK A01 T02990161  RH  043%=      5-min Rain = 0
KNH1 190507Z 18014KT 30/16 A2995 RMK A01 T02990161  RH  043%=      5-min Rain = 0
KNH1 190508Z 18014G20KT 30/16 A2995 RMK A01 T02990161  RH  043%=      5-min Rain = 0
KNH1 190509Z 18015G20KT 30/16 A2995 RMK A01 T02990161  RH  043%=      5-min Rain = 0
KNH1 190510Z 18018KT 30/16 A2995 RMK A01 T02990162  RH  043%=      5-min Rain = 0
KNH1 190511Z 18016G21KT 30/16 A2995 RMK A01 T02980162  RH  044%=      5-min Rain = 0
KNH1 190512Z 18015KT 30/16 A2995 RMK A01 T02980163  RH  044%=      5-min Rain = 0
KNH1 190513Z 18015KT 30/16 A2995 RMK A01 T02980163  RH  044%=      5-min Rain = 0
KNH1 190514Z 18016KT 30/16 A2995 RMK A01 T02980163  RH  044%=      5-min Rain = 0
KNH1 190515Z 18012KT 30/16 A2995 RMK A01 T02980163  RH  044%=      5-min Rain = 0
KNH1 190516Z 18013KT 30/16 A2995 RMK A01 T02970163  RH  044%=      5-min Rain = 0
KNH1 190517Z 19016KT 30/16 A2995 RMK A01 T02970163  RH  044%=      5-min Rain = 0
KNH1 190518Z 18015KT 30/16 A2995 RMK A01 T02960163  RH  045%=      5-min Rain = 0
KNH1 190519Z 18016KT 30/16 A2995 RMK A01 T02970163  RH  045%=      5-min Rain = 0
KNH1 190520Z 18013KT 30/16 A2995 RMK A01 T02970163  RH  044%=      5-min Rain = 0
KNH1 190521Z 18012KT 30/16 A2995 RMK A01 T02960163  RH  045%=      5-min Rain = 0
KNH1 190522Z 18015KT 30/16 A2995 RMK A01 T02960163  RH  045%=      5-min Rain = 0
KNH1 190523Z 18014KT 30/16 A2995 RMK A01 T02960164  RH  045%=      5-min Rain = 0
KNH1 190524Z 18016KT 30/16 A2995 RMK A01 T02960164  RH  045%=      5-min Rain = 0
KNH1 190525Z 18016KT 30/16 A2995 RMK A01 T02960163  RH  045%=      5-min Rain = 0
KNH1 190526Z 18014G19KT 30/16 A2995 RMK A01 T02960163  RH  045%=      5-min Rain = 0
KNH1 190527Z 18017KT 30/16 A2995 RMK A01 T02960163  RH  045%=      5-min Rain = 0
KNH1 190528Z 19015G20KT 30/16 A2995 RMK A01 T02960163  RH  045%=      5-min Rain = 0
KNH1 190529Z 18016KT 30/16 A2996 RMK A01 T02950163  RH  045%=      5-min Rain = 0
KNH1 190530Z 18014KT 30/16 A2996 RMK A01 T02950163  RH  045%=      5-min Rain = 0
KNH1 190531Z 18016KT 30/16 A2996 RMK A01 T02950164  RH  045%=      5-min Rain = 0
KNH1 190532Z 18014G19KT 30/16 A2996 RMK A01 T02950164  RH  045%=      5-min Rain = 0
KNH1 190533Z 18014KT 30/16 A2996 RMK A01 T02950163  RH  045%=      5-min Rain = 0
KNH1 190534Z 18016G21KT 29/16 A2996 RMK A01 T02940163  RH  045%=      5-min Rain = 0
KNH1 190535Z 18015KT 29/16 A2996 RMK A01 T02940163  RH  045%=      5-min Rain = 0
KNH1 190536Z 18015KT 29/16 A2996 RMK A01 T02940164  RH  045%=      5-min Rain = 0
KNH1 190537Z 18015KT 29/16 A2996 RMK A01 T02930164  RH  045%=      5-min Rain = 0
KNH1 190538Z 18017G22KT 29/16 A2996 RMK A01 T02930164  RH  046%=      5-min Rain = 0
KNH1 190539Z 18017KT 29/16 A2996 RMK A01 T02930164  RH  045%=      5-min Rain = 0
KNH1 190540Z 18016G21KT 29/16 A2996 RMK A01 T02930164  RH  046%=      5-min Rain = 0
KNH1 190541Z 18014KT 29/16 A2996 RMK A01 T02930164  RH  046%=      5-min Rain = 0
KNH1 190542Z 18015G21KT 29/16 A2996 RMK A01 T02930164  RH  046%=      5-min Rain = 0
KNH1 190543Z 18015KT 29/16 A2996 RMK A01 T02930164  RH  046%=      5-min Rain = 0
KNH1 190544Z 18016KT 29/16 A2996 RMK A01 T02930164  RH  046%=      5-min Rain = 0
KNH1 190545Z 18015KT 29/16 A2996 RMK A01 T02930164  RH  046%=      5-min Rain = 0
KNH1 190546Z 18015KT 29/16 A2996 RMK A01 T02920164  RH  046%=      5-min Rain = 0
KNH1 190547Z 18015KT 29/16 A2996 RMK A01 T02920164  RH  046%=      5-min Rain = 0
KNH1 190548Z 18014KT 29/16 A2996 RMK A01 T02920164  RH  046%=      5-min Rain = 0
KNH1 190549Z 18017G24KT 29/16 A2996 RMK A01 T02910164  RH  046%=      5-min Rain = 0
KNH1 190550Z 18017KT 29/16 A2996 RMK A01 T02920164  RH  046%=      5-min Rain = 0
KNH1 190551Z 18017G22KT 29/16 A2996 RMK A01 T02920164  RH  046%=      5-min Rain = 0
KNH1 190552Z 18018KT 29/16 A2996 RMK A01 T02910163  RH  046%=      5-min Rain = 0
KNH1 190553Z 18016KT 29/16 A2996 RMK A01 T02910163  RH  046%=      5-min Rain = 0
KNH1 190554Z 19016G21KT 29/16 A2997 RMK A01 T02920164  RH  046%=      5-min Rain = 0
KNH1 190555Z 18017G22KT 29/16 A2997 RMK A01 T02910163  RH  046%=      5-min Rain = 0
KNH1 190556Z 18016KT 29/16 A2997 RMK A01 T02910164  RH  046%=      5-min Rain = 0
KNH1 190557Z 18017KT 29/16 A2997 RMK A01 T02910163  RH  046%=      5-min Rain = 0
KNH1 190558Z 18013KT 29/16 A2997 RMK A01 T02910163  RH  046%=      5-min Rain = 0
KNH1 190559Z 18015KT 29/16 A2997 RMK A01 T02900163  RH  046%=      5-min Rain = 0
KNH1 190600Z 18016G23KT 29/16 A2997 RMK A01 T02900163  RH  046%=      5-min Rain = 0
KNH1 190601Z 19015KT 29/16 A2997 RMK A01 T02890163  RH  046%=      5-min Rain = 0
KNH1 190602Z 19016KT 29/16 A2997 RMK A01 T02890163  RH  046%=      5-min Rain = 0
KNH1 190603Z 18018KT 29/16 A2997 RMK A01 T02890163  RH  046%=      5-min Rain = 0
KNH1 190604Z 18016G21KT 29/16 A2997 RMK A01 T02890163  RH  046%=      5-min Rain = 0
KNH1 190605Z 18016KT 29/16 A2997 RMK A01 T02900162  RH  046%=      5-min Rain = 0
KNH1 190606Z 18013KT 29/16 A2997 RMK A01 T02900163  RH  046%=      5-min Rain = 0
KNH1 190607Z 18014KT 29/16 A2997 RMK A01 T02890162  RH  046%=      5-min Rain = 0
KNH1 190608Z 19016KT 29/16 A2997 RMK A01 T02890162  RH  046%=      5-min Rain = 0
KNH1 190609Z 18015G21KT 29/16 A2997 RMK A01 T02880162  RH  046%=      5-min Rain = 0
KNH1 190610Z 18015KT 29/16 A2997 RMK A01 T02880162  RH  046%=      5-min Rain = 0
KNH1 190611Z 19017KT 29/16 A2997 RMK A01 T02880162  RH  046%=      5-min Rain = 0
KNH1 190612Z 19019G24KT 29/16 A2997 RMK A01 T02880162  RH  046%=      5-min Rain = 0
KNH1 190613Z 18015KT 29/16 A2997 RMK A01 T02880162  RH  046%=      5-min Rain = 0
KNH1 190614Z 18013G18KT 29/16 A2997 RMK A01 T02880162  RH  046%=      5-min Rain = 0
KNH1 190615Z 18017KT 29/16 A2997 RMK A01 T02870161  RH  046%=      5-min Rain = 0
KNH1 190616Z 18016KT 29/16 A2997 RMK A01 T02870161  RH  046%=      5-min Rain = 0
KNH1 190617Z 18016KT 29/16 A2997 RMK A01 T02880162  RH  046%=      5-min Rain = 0
KNH1 190618Z 19014KT 29/16 A2997 RMK A01 T02870161  RH  046%=      5-min Rain = 0
KNH1 190619Z 19016KT 29/16 A2997 RMK A01 T02870161  RH  047%=      5-min Rain = 0
KNH1 190620Z 18015G20KT 29/16 A2997 RMK A01 T02870161  RH  047%=      5-min Rain = 0
KNH1 190621Z 18017KT 29/16 A2997 RMK A01 T02870161  RH  047%=      5-min Rain = 0
KNH1 190622Z 18013G18KT 29/16 A2997 RMK A01 T02860161  RH  047%=      5-min Rain = 0
KNH1 190623Z 19014KT 29/16 A2997 RMK A01 T02860161  RH  047%=      5-min Rain = 0
KNH1 190624Z 19017KT 29/16 A2997 RMK A01 T02850160  RH  047%=      5-min Rain = 0
KNH1 190625Z 18016G21KT 29/16 A2997 RMK A01 T02850160  RH  047%=      5-min Rain = 0
KNH1 190626Z 18014KT 29/16 A2997 RMK A01 T02850160  RH  047%=      5-min Rain = 0
KNH1 190627Z 19013G19KT 29/16 A2997 RMK A01 T02850160  RH  047%=      5-min Rain = 0
KNH1 190628Z 18017KT 29/16 A2997 RMK A01 T02850160  RH  047%=      5-min Rain = 0
KNH1 190629Z 18019G24KT 28/16 A2997 RMK A01 T02840160  RH  047%=      5-min Rain = 0
KNH1 190630Z 18016G21KT 29/16 A2997 RMK A01 T02850160  RH  046%=      5-min Rain = 0
KNH1 190631Z 19014KT 29/16 A2997 RMK A01 T02850160  RH  046%=      5-min Rain = 0
KNH1 190632Z 19014KT 29/16 A2997 RMK A01 T02850160  RH  047%=      5-min Rain = 0
KNH1 190633Z 19017G23KT 28/16 A2997 RMK A01 T02840159  RH  047%=      5-min Rain = 0
KNH1 190634Z 19016KT 28/16 A2997 RMK A01 T02840159  RH  047%=      5-min Rain = 0
KNH1 190635Z 18016KT 28/16 A2997 RMK A01 T02840159  RH  047%=      5-min Rain = 0
KNH1 190636Z 18016KT 28/16 A2997 RMK A01 T02840159  RH  047%=      5-min Rain = 0
KNH1 190637Z 19016KT 28/16 A2997 RMK A01 T02840159  RH  047%=      5-min Rain = 0
KNH1 190638Z 19015KT 28/16 A2997 RMK A01 T02840159  RH  047%=      5-min Rain = 0
KNH1 190639Z 19016KT 28/16 A2997 RMK A01 T02840158  RH  047%=      5-min Rain = 0
KNH1 190640Z 19014KT 28/16 A2997 RMK A01 T02830158  RH  047%=      5-min Rain = 0
KNH1 190641Z 19016KT 28/16 A2997 RMK A01 T02830158  RH  047%=      5-min Rain = 0
KNH1 190642Z 19014KT 28/16 A2997 RMK A01 T02830158  RH  046%=      5-min Rain = 0
KNH1 190643Z 19015KT 28/16 A2997 RMK A01 T02830157  RH  046%=      5-min Rain = 0
KNH1 190644Z 19014KT 28/16 A2997 RMK A01 T02830157  RH  046%=      5-min Rain = 0
KNH1 190645Z 19016G21KT 28/16 A2997 RMK A01 T02820157  RH  046%=      5-min Rain = 0
KNH1 190646Z 19015KT 28/16 A2997 RMK A01 T02820157  RH  046%=      5-min Rain = 0
KNH1 190647Z 19016KT 28/16 A2997 RMK A01 T02820156  RH  046%=      5-min Rain = 0
KNH1 190648Z 19013G18KT 28/16 A2997 RMK A01 T02820156  RH  046%=      5-min Rain = 0
KNH1 190649Z 18014KT 28/16 A2997 RMK A01 T02820156  RH  046%=      5-min Rain = 0
KNH1 190650Z 19015KT 28/16 A2997 RMK A01 T02820155  RH  046%=      5-min Rain = 0
KNH1 190651Z 19017KT 28/16 A2997 RMK A01 T02820155  RH  046%=      5-min Rain = 0
KNH1 190652Z 19014KT 28/16 A2997 RMK A01 T02820155  RH  046%=      5-min Rain = 0
KNH1 190653Z 19017KT 28/15 A2997 RMK A01 T02820154  RH  046%=      5-min Rain = 0
KNH1 190654Z 19014G19KT 28/15 A2997 RMK A01 T02820154  RH  046%=      5-min Rain = 0
KNH1 190655Z 19018KT 28/15 A2997 RMK A01 T02820154  RH  046%=      5-min Rain = 0
KNH1 190656Z 19015G20KT 28/15 A2997 RMK A01 T02820154  RH  046%=      5-min Rain = 0
KNH1 190657Z 19015G20KT 28/15 A2997 RMK A01 T02820153  RH  046%=      5-min Rain = 0
KNH1 190658Z 18016KT 28/15 A2997 RMK A01 T02820153  RH  046%=      5-min Rain = 0
KNH1 190659Z 19013KT 28/15 A2997 RMK A01 T02810153  RH  046%=      5-min Rain = 0
KNH1 190700Z 19014KT 28/15 A2997 RMK A01 T02810152  RH  046%=      5-min Rain = 0
KNH1 190701Z 19016KT 28/15 A2997 RMK A01 T02810152  RH  046%=      5-min Rain = 0
KNH1 190702Z 19017KT 28/15 A2997 RMK A01 T02810152  RH  045%=      5-min Rain = 0
KNH1 190703Z 18015KT 28/15 A2997 RMK A01 T02810152  RH  045%=      5-min Rain = 0
KNH1 190704Z 18014KT 28/15 A2997 RMK A01 T02810152  RH  045%=      5-min Rain = 0
KNH1 190705Z 19015KT 28/15 A2997 RMK A01 T02810151  RH  045%=      5-min Rain = 0
KNH1 190706Z 18015KT 28/15 A2997 RMK A01 T02810151  RH  045%=      5-min Rain = 0
KNH1 190707Z 19016G22KT 28/15 A2997 RMK A01 T02810151  RH  045%=      5-min Rain = 0
KNH1 190708Z 19019KT 28/15 A2997 RMK A01 T02800150  RH  045%=      5-min Rain = 0
KNH1 190709Z 19014G19KT 28/15 A2997 RMK A01 T02800150  RH  045%=      5-min Rain = 0
KNH1 190710Z 19014G19KT 28/15 A2997 RMK A01 T02800150  RH  045%=      5-min Rain = 0
KNH1 190711Z 19016KT 28/15 A2997 RMK A01 T02800150  RH  045%=      5-min Rain = 0
KNH1 190712Z 19015KT 28/15 A2997 RMK A01 T02800150  RH  045%=      5-min Rain = 0
KNH1 190713Z 19013G18KT 28/15 A2997 RMK A01 T02800150  RH  045%=      5-min Rain = 0
KNH1 190714Z 19017KT 28/15 A2997 RMK A01 T02800149  RH  045%=      5-min Rain = 0
KNH1 190715Z 19015KT 28/15 A2997 RMK A01 T02790149  RH  045%=      5-min Rain = 0
KNH1 190716Z 19013KT 28/15 A2997 RMK A01 T02790149  RH  045%=      5-min Rain = 0
KNH1 190717Z 19014KT 28/15 A2997 RMK A01 T02790149  RH  045%=      5-min Rain = 0
KNH1 190718Z 19012KT 28/15 A2997 RMK A01 T02790149  RH  045%=      5-min Rain = 0
KNH1 190719Z 19011KT 28/15 A2997 RMK A01 T02790149  RH  045%=      5-min Rain = 0
KNH1 190720Z 19012G18KT 28/15 A2997 RMK A01 T02780149  RH  045%=      5-min Rain = 0
KNH1 190721Z 19016G22KT 28/15 A2997 RMK A01 T02780149  RH  045%=      5-min Rain = 0
KNH1 190722Z 18015KT 28/15 A2997 RMK A01 T02780148  RH  045%=      5-min Rain = 0
KNH1 190723Z 19014KT 28/15 A2997 RMK A01 T02780148  RH  045%=      5-min Rain = 0
KNH1 190724Z 19014KT 28/15 A2997 RMK A01 T02780148  RH  045%=      5-min Rain = 0
KNH1 190725Z 19014KT 28/15 A2997 RMK A01 T02780148  RH  045%=      5-min Rain = 0
KNH1 190726Z 19015KT 28/15 A2997 RMK A01 T02780148  RH  045%=      5-min Rain = 0
KNH1 190727Z 19014KT 28/15 A2997 RMK A01 T02780148  RH  045%=      5-min Rain = 0
KNH1 190728Z 19013KT 28/15 A2997 RMK A01 T02780148  RH  045%=      5-min Rain = 0
KNH1 190729Z 19014G19KT 28/15 A2997 RMK A01 T02770148  RH  045%=      5-min Rain = 0
KNH1 190730Z 19015KT 28/15 A2997 RMK A01 T02770148  RH  045%=      5-min Rain = 0
KNH1 190731Z 19014KT 28/15 A2997 RMK A01 T02770148  RH  045%=      5-min Rain = 0
KNH1 190732Z 19015KT 28/15 A2997 RMK A01 T02770148  RH  045%=      5-min Rain = 0
KNH1 190733Z 19014KT 28/15 A2997 RMK A01 T02770148  RH  045%=      5-min Rain = 0
KNH1 190734Z 19014KT 28/15 A2997 RMK A01 T02770148  RH  045%=      5-min Rain = 0
KNH1 190735Z 19013KT 28/15 A2997 RMK A01 T02770147  RH  045%=      5-min Rain = 0
KNH1 190736Z 19012KT 28/15 A2997 RMK A01 T02760147  RH  045%=      5-min Rain = 0
KNH1 190737Z 18013KT 28/15 A2997 RMK A01 T02750147  RH  045%=      5-min Rain = 0
KNH1 190738Z 18013KT 28/15 A2997 RMK A01 T02750147  RH  045%=      5-min Rain = 0
KNH1 190739Z 19013G18KT 28/15 A2997 RMK A01 T02750147  RH  045%=      5-min Rain = 0
KNH1 190740Z 19013KT 28/15 A2997 RMK A01 T02750147  RH  045%=      5-min Rain = 0
KNH1 190741Z 18012KT 28/15 A2997 RMK A01 T02750147  RH  045%=      5-min Rain = 0
KNH1 190742Z 19014KT 28/15 A2997 RMK A01 T02750146  RH  045%=      5-min Rain = 0
KNH1 190743Z 19014KT 28/15 A2997 RMK A01 T02750146  RH  045%=      5-min Rain = 0
KNH1 190744Z 18013G18KT 28/15 A2997 RMK A01 T02760146  RH  045%=      5-min Rain = 0
KNH1 190745Z 19015KT 28/15 A2997 RMK A01 T02750146  RH  045%=      5-min Rain = 0
KNH1 190746Z 19012KT 28/15 A2997 RMK A01 T02750146  RH  045%=      5-min Rain = 0
KNH1 190747Z 19012KT 28/15 A2997 RMK A01 T02750146  RH  045%=      5-min Rain = 0
KNH1 190748Z 18015KT 27/15 A2997 RMK A01 T02740146  RH  045%=      5-min Rain = 0
KNH1 190749Z 19012G17KT 27/15 A2997 RMK A01 T02740146  RH  045%=      5-min Rain = 0
KNH1 190750Z 19014KT 27/15 A2997 RMK A01 T02740146  RH  045%=      5-min Rain = 0
KNH1 190751Z 19014KT 27/15 A2997 RMK A01 T02740146  RH  045%=      5-min Rain = 0
KNH1 190752Z 19013G18KT 27/15 A2997 RMK A01 T02740146  RH  045%=      5-min Rain = 0
KNH1 190753Z 19013KT 27/15 A2997 RMK A01 T02740146  RH  045%=      5-min Rain = 0
KNH1 190754Z 19014G19KT 27/15 A2997 RMK A01 T02740146  RH  045%=      5-min Rain = 0
KNH1 190755Z 19012KT 27/15 A2997 RMK A01 T02740146  RH  046%=      5-min Rain = 0
KNH1 190756Z 19012KT 27/15 A2997 RMK A01 T02730146  RH  045%=      5-min Rain = 0
KNH1 190757Z 19012G17KT 27/15 A2997 RMK A01 T02730145  RH  046%=      5-min Rain = 0
KNH1 190758Z 19015KT 27/15 A2997 RMK A01 T02730145  RH  046%=      5-min Rain = 0
KNH1 190759Z 19013KT 27/15 A2997 RMK A01 T02730145  RH  045%=      5-min Rain = 0
KNH1 190800Z 19012KT 27/15 A2997 RMK A01 T02730145  RH  045%=      5-min Rain = 0
KNH1 190801Z 18011KT 27/15 A2997 RMK A01 T02730145  RH  046%=      5-min Rain = 0
KNH1 190802Z 19013KT 27/15 A2997 RMK A01 T02720145  RH  046%=      5-min Rain = 0
KNH1 190803Z 19013KT 27/15 A2997 RMK A01 T02720145  RH  046%=      5-min Rain = 0
KNH1 190804Z 19014G19KT 27/15 A2997 RMK A01 T02730145  RH  046%=      5-min Rain = 0
KNH1 190805Z 18011G16KT 27/15 A2997 RMK A01 T02720145  RH  046%=      5-min Rain = 0
KNH1 190806Z 18015KT 27/15 A2997 RMK A01 T02720145  RH  046%=      5-min Rain = 0
KNH1 190807Z 19012KT 27/15 A2997 RMK A01 T02720145  RH  046%=      5-min Rain = 0
KNH1 190808Z 19012KT 27/14 A2997 RMK A01 T02720144  RH  045%=      5-min Rain = 0
KNH1 190809Z 19014KT 27/14 A2997 RMK A01 T02720144  RH  045%=      5-min Rain = 0
KNH1 190810Z 19012KT 27/14 A2997 RMK A01 T02720144  RH  045%=      5-min Rain = 0
KNH1 190811Z 19012KT 27/14 A2997 RMK A01 T02720144  RH  046%=      5-min Rain = 0
KNH1 190812Z 18013KT 27/14 A2997 RMK A01 T02720144  RH  046%=      5-min Rain = 0
KNH1 190813Z 19013KT 27/14 A2997 RMK A01 T02710144  RH  046%=      5-min Rain = 0
KNH1 190814Z 19012KT 27/14 A2997 RMK A01 T02710144  RH  046%=      5-min Rain = 0
KNH1 190815Z 18013KT 27/14 A2997 RMK A01 T02710144  RH  046%=      5-min Rain = 0
KNH1 190816Z 19011KT 27/14 A2997 RMK A01 T02710144  RH  046%=      5-min Rain = 0
KNH1 190817Z 19013KT 27/14 A2997 RMK A01 T02710144  RH  046%=      5-min Rain = 0
KNH1 190818Z 19015KT 27/14 A2997 RMK A01 T02700143  RH  046%=      5-min Rain = 0
KNH1 190819Z 19013KT 27/14 A2997 RMK A01 T02710143  RH  045%=      5-min Rain = 0
KNH1 190820Z 19012KT 27/14 A2997 RMK A01 T02710143  RH  045%=      5-min Rain = 0
KNH1 190821Z 19012KT 27/14 A2997 RMK A01 T02710143  RH  045%=      5-min Rain = 0
KNH1 190822Z 19013KT 27/14 A2997 RMK A01 T02710143  RH  046%=      5-min Rain = 0
KNH1 190823Z 19013KT 27/14 A2997 RMK A01 T02710143  RH  046%=      5-min Rain = 0
KNH1 190824Z 19013KT 27/14 A2997 RMK A01 T02710143  RH  046%=      5-min Rain = 0
KNH1 190825Z 19012KT 27/14 A2997 RMK A01 T02700143  RH  045%=      5-min Rain = 0
KNH1 190826Z 18012KT 27/14 A2997 RMK A01 T02700143  RH  046%=      5-min Rain = 0
KNH1 190827Z 18011KT 27/14 A2997 RMK A01 T02700143  RH  046%=      5-min Rain = 0
KNH1 190828Z 18012KT 27/14 A2997 RMK A01 T02700143  RH  046%=      5-min Rain = 0
KNH1 190829Z 19010G15KT 27/14 A2997 RMK A01 T02700143  RH  046%=      5-min Rain = 0
KNH1 190830Z 18012KT 27/14 A2997 RMK A01 T02700143  RH  046%=      5-min Rain = 0
KNH1 190831Z 18011KT 27/14 A2997 RMK A01 T02690143  RH  046%=      5-min Rain = 0
KNH1 190832Z 18011KT 27/14 A2997 RMK A01 T02690142  RH  046%=      5-min Rain = 0
KNH1 190833Z 18011KT 27/14 A2997 RMK A01 T02690143  RH  046%=      5-min Rain = 0
KNH1 190834Z 19011KT 27/14 A2997 RMK A01 T02690142  RH  046%=      5-min Rain = 0
KNH1 190835Z 18012KT 27/14 A2997 RMK A01 T02690142  RH  046%=      5-min Rain = 0
KNH1 190836Z 19011KT 27/14 A2997 RMK A01 T02690143  RH  046%=      5-min Rain = 0
KNH1 190837Z 19012G17KT 27/14 A2997 RMK A01 T02690143  RH  046%=      5-min Rain = 0
KNH1 190838Z 18013KT 27/14 A2997 RMK A01 T02690142  RH  046%=      5-min Rain = 0
KNH1 190839Z 19012KT 27/14 A2997 RMK A01 T02690142  RH  046%=      5-min Rain = 0
KNH1 190840Z 18012KT 27/14 A2997 RMK A01 T02690142  RH  046%=      5-min Rain = 0
KNH1 190841Z 19011KT 27/14 A2997 RMK A01 T02690142  RH  046%=      5-min Rain = 0
KNH1 190842Z 19011KT 27/14 A2997 RMK A01 T02680142  RH  046%=      5-min Rain = 0
KNH1 190843Z 19011KT 27/14 A2997 RMK A01 T02680142  RH  046%=      5-min Rain = 0
KNH1 190844Z 19012KT 27/14 A2997 RMK A01 T02680142  RH  046%=      5-min Rain = 0
KNH1 190845Z 19012KT 27/14 A2997 RMK A01 T02680142  RH  046%=      5-min Rain = 0
KNH1 190846Z 18010KT 27/14 A2997 RMK A01 T02670142  RH  046%=      5-min Rain = 0
KNH1 190847Z 18010KT 27/14 A2997 RMK A01 T02670142  RH  046%=      5-min Rain = 0
KNH1 190848Z 19011KT 27/14 A2997 RMK A01 T02670142  RH  046%=      5-min Rain = 0
KNH1 190849Z 19010KT 27/14 A2997 RMK A01 T02670142  RH  046%=      5-min Rain = 0
KNH1 190850Z 19011KT 27/14 A2997 RMK A01 T02660142  RH  046%=      5-min Rain = 0
KNH1 190851Z 18010G16KT 27/14 A2997 RMK A01 T02660142  RH  046%=      5-min Rain = 0
KNH1 190852Z 18013KT 27/14 A2997 RMK A01 T02660142  RH  046%=      5-min Rain = 0
KNH1 190853Z 18012KT 27/14 A2997 RMK A01 T02660142  RH  046%=      5-min Rain = 0
KNH1 190854Z 18013KT 27/14 A2997 RMK A01 T02660142  RH  046%=      5-min Rain = 0
KNH1 190855Z 19012KT 27/14 A2997 RMK A01 T02660142  RH  046%=      5-min Rain = 0
KNH1 190856Z 18010KT 27/14 A2997 RMK A01 T02660142  RH  046%=      5-min Rain = 0
KNH1 190857Z 18011KT 27/14 A2997 RMK A01 T02660142  RH  046%=      5-min Rain = 0
KNH1 190858Z 18011KT 27/14 A2997 RMK A01 T02650142  RH  047%=      5-min Rain = 0
KNH1 190859Z 18011KT 27/14 A2997 RMK A01 T02650142  RH  047%=      5-min Rain = 0
KNH1 190900Z 18012KT 27/14 A2997 RMK A01 T02650142  RH  047%=      5-min Rain = 0
KNH1 190901Z 18011KT 27/14 A2997 RMK A01 T02650142  RH  047%=      5-min Rain = 0
KNH1 190902Z 19008KT 27/14 A2997 RMK A01 T02650142  RH  047%=      5-min Rain = 0
KNH1 190903Z 18010KT 26/14 A2997 RMK A01 T02640142  RH  047%=      5-min Rain = 0
KNH1 190904Z 19013KT 26/14 A2997 RMK A01 T02640142  RH  047%=      5-min Rain = 0
KNH1 190905Z 18011KT 26/14 A2997 RMK A01 T02640142  RH  047%=      5-min Rain = 0
KNH1 190906Z 18011KT 26/14 A2997 RMK A01 T02640141  RH  047%=      5-min Rain = 0
KNH1 190907Z 18011KT 26/14 A2997 RMK A01 T02640142  RH  047%=      5-min Rain = 0
KNH1 190908Z 18011KT 26/14 A2997 RMK A01 T02640142  RH  047%=      5-min Rain = 0
KNH1 190909Z 18010KT 26/14 A2997 RMK A01 T02640142  RH  047%=      5-min Rain = 0
KNH1 190910Z 18011KT 26/14 A2997 RMK A01 T02640142  RH  047%=      5-min Rain = 0
KNH1 190911Z 18011KT 26/14 A2997 RMK A01 T02640142  RH  047%=      5-min Rain = 0
KNH1 190912Z 19011KT 26/14 A2997 RMK A01 T02630142  RH  047%=      5-min Rain = 0
KNH1 190913Z 18009KT 26/14 A2997 RMK A01 T02630142  RH  047%=      5-min Rain = 0
KNH1 190914Z 19011KT 26/14 A2997 RMK A01 T02630142  RH  047%=      5-min Rain = 0
KNH1 190915Z 18011KT 26/14 A2997 RMK A01 T02630142  RH  047%=      5-min Rain = 0
KNH1 190916Z 18010KT 26/14 A2997 RMK A01 T02630142  RH  047%=      5-min Rain = 0
KNH1 190917Z 18010KT 26/14 A2997 RMK A01 T02630142  RH  047%=      5-min Rain = 0
KNH1 190918Z 18011KT 26/14 A2997 RMK A01 T02630142  RH  047%=      5-min Rain = 0
KNH1 190919Z 18010KT 26/14 A2997 RMK A01 T02620142  RH  047%=      5-min Rain = 0
KNH1 190920Z 18010KT 26/14 A2997 RMK A01 T02620142  RH  047%=      5-min Rain = 0
KNH1 190921Z 18010KT 26/14 A2997 RMK A01 T02620142  RH  047%=      5-min Rain = 0
KNH1 190922Z 18011KT 26/14 A2997 RMK A01 T02620142  RH  047%=      5-min Rain = 0
KNH1 190923Z 18010KT 26/14 A2997 RMK A01 T02620142  RH  048%=      5-min Rain = 0
KNH1 190924Z 18009KT 26/14 A2997 RMK A01 T02620142  RH  048%=      5-min Rain = 0
KNH1 190925Z 18009KT 26/14 A2997 RMK A01 T02620142  RH  048%=      5-min Rain = 0
KNH1 190926Z 17008KT 26/14 A2997 RMK A01 T02610142  RH  048%=      5-min Rain = 0
KNH1 190927Z 18009KT 26/14 A2997 RMK A01 T02610142  RH  048%=      5-min Rain = 0
KNH1 190928Z 18008KT 26/14 A2997 RMK A01 T02610142  RH  048%=      5-min Rain = 0
KNH1 190929Z 18009KT 26/14 A2997 RMK A01 T02600142  RH  048%=      5-min Rain = 0
KNH1 190930Z 18010KT 26/14 A2997 RMK A01 T02600142  RH  048%=      5-min Rain = 0
KNH1 190931Z 18009KT 26/14 A2997 RMK A01 T02600142  RH  048%=      5-min Rain = 0
KNH1 190932Z 18009KT 26/14 A2997 RMK A01 T02600142  RH  048%=      5-min Rain = 0
KNH1 190933Z 18009KT 26/14 A2997 RMK A01 T02590142  RH  048%=      5-min Rain = 0
KNH1 190934Z 18010KT 26/14 A2997 RMK A01 T02590142  RH  048%=      5-min Rain = 0
KNH1 190935Z 18010KT 26/14 A2997 RMK A01 T02590142  RH  048%=      5-min Rain = 0
KNH1 190936Z 18010KT 26/14 A2997 RMK A01 T02590142  RH  048%=      5-min Rain = 0
KNH1 190937Z 18009KT 26/14 A2997 RMK A01 T02590142  RH  048%=      5-min Rain = 0
KNH1 190938Z 18010KT 26/14 A2997 RMK A01 T02590142  RH  048%=      5-min Rain = 0
KNH1 190939Z 18010KT 26/14 A2997 RMK A01 T02590142  RH  048%=      5-min Rain = 0
KNH1 190940Z 17008KT 26/14 A2997 RMK A01 T02590142  RH  049%=      5-min Rain = 0
KNH1 190941Z 17008KT 26/14 A2997 RMK A01 T02580142  RH  049%=      5-min Rain = 0
KNH1 190942Z 17007KT 26/14 A2997 RMK A01 T02580142  RH  049%=      5-min Rain = 0
KNH1 190943Z 17009KT 26/14 A2997 RMK A01 T02570142  RH  049%=      5-min Rain = 0
KNH1 190944Z 17009KT 26/14 A2997 RMK A01 T02570142  RH  049%=      5-min Rain = 0
KNH1 190945Z 17008KT 26/14 A2997 RMK A01 T02570142  RH  049%=      5-min Rain = 0
KNH1 190946Z 17009KT 26/14 A2997 RMK A01 T02570142  RH  049%=      5-min Rain = 0
KNH1 190947Z 17009KT 26/14 A2997 RMK A01 T02560142  RH  049%=      5-min Rain = 0
KNH1 190948Z 18009KT 26/14 A2997 RMK A01 T02560142  RH  049%=      5-min Rain = 0
KNH1 190949Z 17010KT 26/14 A2997 RMK A01 T02560142  RH  049%=      5-min Rain = 0
KNH1 190950Z 18009KT 26/14 A2997 RMK A01 T02560142  RH  049%=      5-min Rain = 0
KNH1 190951Z 17008KT 26/14 A2997 RMK A01 T02560142  RH  049%=      5-min Rain = 0
KNH1 190952Z 17009KT 26/14 A2997 RMK A01 T02550142  RH  049%=      5-min Rain = 0
KNH1 190953Z 18009KT 26/14 A2997 RMK A01 T02550142  RH  049%=      5-min Rain = 0
KNH1 190954Z 18010KT 26/14 A2997 RMK A01 T02550142  RH  049%=      5-min Rain = 0
KNH1 190955Z 17009KT 26/14 A2997 RMK A01 T02550142  RH  050%=      5-min Rain = 0
KNH1 190956Z 17010KT 26/14 A2997 RMK A01 T02550142  RH  050%=      5-min Rain = 0
KNH1 190957Z 17009KT 26/14 A2997 RMK A01 T02550142  RH  050%=      5-min Rain = 0
KNH1 190958Z 17008KT 25/14 A2997 RMK A01 T02540142  RH  050%=      5-min Rain = 0
KNH1 190959Z 17008KT 25/14 A2997 RMK A01 T02540142  RH  050%=      5-min Rain = 0
KNH1 191000Z 17009KT 25/14 A2997 RMK A01 T02530142  RH  050%=      5-min Rain = 0
KNH1 191001Z 17009KT 25/14 A2997 RMK A01 T02530141  RH  050%=      5-min Rain = 0
KNH1 191002Z 17008KT 25/14 A2997 RMK A01 T02530141  RH  050%=      5-min Rain = 0
KNH1 191003Z 17007KT 25/14 A2997 RMK A01 T02520142  RH  050%=      5-min Rain = 0
KNH1 191004Z 17007KT 25/14 A2997 RMK A01 T02520142  RH  050%=      5-min Rain = 0
KNH1 191005Z 17007KT 25/14 A2997 RMK A01 T02520142  RH  050%=      5-min Rain = 0
KNH1 191006Z 17008KT 25/14 A2997 RMK A01 T02520142  RH  050%=      5-min Rain = 0
KNH1 191007Z 17008KT 25/14 A2997 RMK A01 T02520142  RH  051%=      5-min Rain = 0
KNH1 191008Z 17008KT 25/14 A2997 RMK A01 T02520142  RH  051%=      5-min Rain = 0
KNH1 191009Z 17009KT 25/14 A2997 RMK A01 T02510142  RH  051%=      5-min Rain = 0
KNH1 191010Z 17009KT 25/14 A2997 RMK A01 T02510142  RH  051%=      5-min Rain = 0
KNH1 191011Z 17009KT 25/14 A2997 RMK A01 T02510142  RH  051%=      5-min Rain = 0
KNH1 191012Z 17010KT 25/14 A2997 RMK A01 T02510142  RH  051%=      5-min Rain = 0
KNH1 191013Z 17009KT 25/14 A2997 RMK A01 T02510142  RH  051%=      5-min Rain = 0
KNH1 191014Z 17009KT 25/14 A2997 RMK A01 T02510142  RH  051%=      5-min Rain = 0
KNH1 191015Z 17009KT 25/14 A2997 RMK A01 T02510142  RH  051%=      5-min Rain = 0
KNH1 191016Z 17009KT 25/14 A2997 RMK A01 T02510142  RH  051%=      5-min Rain = 0
KNH1 191017Z 17010KT 25/14 A2997 RMK A01 T02510142  RH  051%=      5-min Rain = 0
KNH1 191018Z 17009KT 25/14 A2997 RMK A01 T02510142  RH  051%=      5-min Rain = 0
KNH1 191019Z 17010KT 25/14 A2997 RMK A01 T02510142  RH  051%=      5-min Rain = 0
KNH1 191020Z 17009G15KT 25/14 A2997 RMK A01 T02500142  RH  051%=      5-min Rain = 0
KNH1 191021Z 17011KT 25/14 A2997 RMK A01 T02500142  RH  051%=      5-min Rain = 0
KNH1 191022Z 17009KT 25/14 A2997 RMK A01 T02500142  RH  051%=      5-min Rain = 0
KNH1 191023Z 18009KT 25/14 A2997 RMK A01 T02500142  RH  051%=      5-min Rain = 0
KNH1 191024Z 17009KT 25/14 A2997 RMK A01 T02500142  RH  051%=      5-min Rain = 0
KNH1 191025Z 17009KT 25/14 A2997 RMK A01 T02500143  RH  051%=      5-min Rain = 0
KNH1 191026Z 17009KT 25/14 A2997 RMK A01 T02500142  RH  051%=      5-min Rain = 0
KNH1 191027Z 17009KT 25/14 A2997 RMK A01 T02500143  RH  051%=      5-min Rain = 0
KNH1 191028Z 17008KT 25/14 A2997 RMK A01 T02500143  RH  051%=      5-min Rain = 0
KNH1 191029Z 17009KT 25/14 A2997 RMK A01 T02500143  RH  052%=      5-min Rain = 0
KNH1 191030Z 17008G13KT 25/14 A2997 RMK A01 T02490143  RH  052%=      5-min Rain = 0
KNH1 191031Z 17009KT 25/14 A2997 RMK A01 T02490143  RH  052%=      5-min Rain = 0
KNH1 191032Z 17008KT 25/14 A2997 RMK A01 T02480143  RH  052%=      5-min Rain = 0
KNH1 191033Z 17008KT 25/14 A2997 RMK A01 T02490143  RH  052%=      5-min Rain = 0
KNH1 191034Z 17009G14KT 25/14 A2997 RMK A01 T02480143  RH  052%=      5-min Rain = 0
KNH1 191035Z 17007KT 25/14 A2997 RMK A01 T02480143  RH  052%=      5-min Rain = 0
KNH1 191036Z 17007KT 25/14 A2997 RMK A01 T02470143  RH  052%=      5-min Rain = 0
KNH1 191037Z 17008G13KT 25/14 A2997 RMK A01 T02470143  RH  052%=      5-min Rain = 0
KNH1 191038Z 17008KT 25/14 A2997 RMK A01 T02470143  RH  052%=      5-min Rain = 0
KNH1 191039Z 18009G14KT 25/14 A2997 RMK A01 T02470143  RH  052%=      5-min Rain = 0
KNH1 191040Z 17009KT 25/14 A2997 RMK A01 T02470143  RH  053%=      5-min Rain = 0
KNH1 191041Z 17009KT 25/14 A2997 RMK A01 T02470144  RH  053%=      5-min Rain = 0
KNH1 191042Z 17010KT 25/14 A2997 RMK A01 T02470143  RH  053%=      5-min Rain = 0
KNH1 191043Z 18010KT 25/14 A2997 RMK A01 T02470144  RH  053%=      5-min Rain = 0
KNH1 191044Z 17008KT 25/14 A2997 RMK A01 T02470144  RH  053%=      5-min Rain = 0
KNH1 191045Z 17008KT 25/14 A2997 RMK A01 T02470144  RH  053%=      5-min Rain = 0
KNH1 191046Z 18009KT 25/14 A2998 RMK A01 T02460143  RH  053%=      5-min Rain = 0
KNH1 191047Z 17010KT 25/14 A2998 RMK A01 T02460144  RH  053%=      5-min Rain = 0
KNH1 191048Z 17009KT 25/14 A2998 RMK A01 T02460143  RH  053%=      5-min Rain = 0
KNH1 191049Z 17010KT 25/14 A2998 RMK A01 T02460143  RH  053%=      5-min Rain = 0
KNH1 191050Z 17009KT 25/14 A2998 RMK A01 T02460144  RH  053%=      5-min Rain = 0
KNH1 191051Z 17010KT 25/14 A2998 RMK A01 T02460143  RH  053%=      5-min Rain = 0
KNH1 191052Z 18009KT 25/14 A2998 RMK A01 T02450143  RH  053%=      5-min Rain = 0
KNH1 191053Z 17009KT 25/14 A2998 RMK A01 T02450143  RH  053%=      5-min Rain = 0
KNH1 191054Z 17008G13KT 25/14 A2998 RMK A01 T02450143  RH  053%=      5-min Rain = 0
KNH1 191055Z 17009KT 24/14 A2998 RMK A01 T02440143  RH  053%=      5-min Rain = 0
KNH1 191056Z 17008KT 24/14 A2998 RMK A01 T02440143  RH  053%=      5-min Rain = 0
KNH1 191057Z 17008KT 24/14 A2998 RMK A01 T02440143  RH  053%=      5-min Rain = 0
KNH1 191058Z 17009KT 24/14 A2998 RMK A01 T02430143  RH  053%=      5-min Rain = 0
KNH1 191059Z 17009KT 24/14 A2998 RMK A01 T02430143  RH  054%=      5-min Rain = 0
KNH1 191100Z 17008KT 24/14 A2998 RMK A01 T02430143  RH  054%=      5-min Rain = 0
KNH1 191101Z 17009KT 24/14 A2998 RMK A01 T02430143  RH  054%=      5-min Rain = 0
KNH1 191102Z 17009KT 24/14 A2998 RMK A01 T02420143  RH  054%=      5-min Rain = 0
KNH1 191103Z 17010KT 24/14 A2998 RMK A01 T02420143  RH  054%=      5-min Rain = 0
KNH1 191104Z 18008KT 24/14 A2998 RMK A01 T02420143  RH  054%=      5-min Rain = 0
KNH1 191105Z 17008G13KT 24/14 A2998 RMK A01 T02420143  RH  054%=      5-min Rain = 0
KNH1 191106Z 17009KT 24/14 A2998 RMK A01 T02420143  RH  054%=      5-min Rain = 0
KNH1 191107Z 17009G14KT 24/14 A2998 RMK A01 T02410143  RH  054%=      5-min Rain = 0
KNH1 191108Z 17010KT 24/14 A2998 RMK A01 T02410143  RH  054%=      5-min Rain = 0
KNH1 191109Z 17010KT 24/14 A2998 RMK A01 T02410143  RH  054%=      5-min Rain = 0
KNH1 191110Z 18010KT 24/14 A2998 RMK A01 T02400143  RH  054%=      5-min Rain = 0
KNH1 191111Z 18010KT 24/14 A2998 RMK A01 T02410143  RH  054%=      5-min Rain = 0
KNH1 191112Z 17011KT 24/14 A2998 RMK A01 T02410143  RH  054%=      5-min Rain = 0
KNH1 191113Z 17010KT 24/14 A2998 RMK A01 T02410143  RH  054%=      5-min Rain = 0
KNH1 191114Z 17010KT 24/14 A2998 RMK A01 T02410143  RH  054%=      5-min Rain = 0
KNH1 191115Z 17009KT 24/14 A2998 RMK A01 T02410143  RH  054%=      5-min Rain = 0
KNH1 191116Z 18011KT 24/14 A2998 RMK A01 T02410144  RH  054%=      5-min Rain = 0
KNH1 191117Z 18012KT 24/14 A2998 RMK A01 T02410144  RH  054%=      5-min Rain = 0
KNH1 191118Z 17011KT 24/14 A2998 RMK A01 T02410144  RH  054%=      5-min Rain = 0
KNH1 191119Z 18009KT 24/14 A2998 RMK A01 T02410144  RH  055%=      5-min Rain = 0
KNH1 191120Z 18011KT 24/14 A2998 RMK A01 T02410144  RH  055%=      5-min Rain = 0
KNH1 191121Z 17010KT 24/14 A2998 RMK A01 T02410144  RH  055%=      5-min Rain = 0
KNH1 191122Z 17010G15KT 24/14 A2998 RMK A01 T02410144  RH  055%=      5-min Rain = 0
KNH1 191123Z 18010G16KT 24/14 A2998 RMK A01 T02410144  RH  055%=      5-min Rain = 0
KNH1 191124Z 18010KT 24/14 A2998 RMK A01 T02400144  RH  055%=      5-min Rain = 0
KNH1 191125Z 17010KT 24/15 A2998 RMK A01 T02400145  RH  055%=      5-min Rain = 0
KNH1 191126Z 17009KT 24/15 A2998 RMK A01 T02400145  RH  055%=      5-min Rain = 0
KNH1 191127Z 18010KT 24/15 A2998 RMK A01 T02400145  RH  055%=      5-min Rain = 0
KNH1 191128Z 18010KT 24/15 A2998 RMK A01 T02400145  RH  055%=      5-min Rain = 0
KNH1 191129Z 17011KT 24/15 A2998 RMK A01 T02390145  RH  055%=      5-min Rain = 0
KNH1 191130Z 17010KT 24/15 A2998 RMK A01 T02390145  RH  056%=      5-min Rain = 0
KNH1 191131Z 18009G15KT 24/15 A2998 RMK A01 T02390145  RH  056%=      5-min Rain = 0
KNH1 191132Z 17010KT 24/15 A2998 RMK A01 T02390145  RH  056%=      5-min Rain = 0
KNH1 191133Z 18009KT 24/15 A2998 RMK A01 T02390145  RH  056%=      5-min Rain = 0
KNH1 191134Z 18008KT 24/15 A2998 RMK A01 T02390146  RH  056%=      5-min Rain = 0
KNH1 191135Z 18010KT 24/15 A2998 RMK A01 T02390146  RH  056%=      5-min Rain = 0
KNH1 191136Z 17009KT 24/15 A2998 RMK A01 T02380146  RH  056%=      5-min Rain = 0
KNH1 191137Z 18008KT 24/15 A2998 RMK A01 T02380146  RH  056%=      5-min Rain = 0
KNH1 191138Z 17009KT 24/15 A2998 RMK A01 T02380147  RH  056%=      5-min Rain = 0
KNH1 191139Z 18009KT 24/15 A2998 RMK A01 T02380147  RH  057%=      5-min Rain = 0
KNH1 191140Z 18009KT 24/15 A2998 RMK A01 T02380147  RH  057%=      5-min Rain = 0
KNH1 191141Z 17009KT 24/15 A2998 RMK A01 T02380147  RH  057%=      5-min Rain = 0
KNH1 191142Z 18010KT 24/15 A2998 RMK A01 T02380147  RH  057%=      5-min Rain = 0
KNH1 191143Z 18009KT 24/15 A2998 RMK A01 T02380148  RH  057%=      5-min Rain = 0
KNH1 191144Z 17008KT 24/15 A2998 RMK A01 T02380148  RH  057%=      5-min Rain = 0
KNH1 191145Z 18009KT 24/15 A2998 RMK A01 T02380148  RH  057%=      5-min Rain = 0
KNH1 191146Z 17010KT 24/15 A2998 RMK A01 T02380148  RH  057%=      5-min Rain = 0
KNH1 191147Z 18010KT 24/15 A2998 RMK A01 T02380148  RH  057%=      5-min Rain = 0
KNH1 191148Z 18011KT 24/15 A2998 RMK A01 T02380149  RH  057%=      5-min Rain = 0
KNH1 191149Z 18009KT 24/15 A2998 RMK A01 T02390149  RH  057%=      5-min Rain = 0
KNH1 191150Z 18011KT 24/15 A2998 RMK A01 T02390149  RH  057%=      5-min Rain = 0
KNH1 191151Z 18011KT 24/15 A2998 RMK A01 T02390149  RH  057%=      5-min Rain = 0
KNH1 191152Z 18009KT 24/15 A2998 RMK A01 T02390149  RH  057%=      5-min Rain = 0
KNH1 191153Z 18011KT 24/15 A2998 RMK A01 T02390150  RH  057%=      5-min Rain = 0
KNH1 191154Z 18010KT 24/15 A2998 RMK A01 T02390150  RH  057%=      5-min Rain = 0
KNH1 191155Z 18011G16KT 24/15 A2998 RMK A01 T02390150  RH  057%=      5-min Rain = 0
KNH1 191156Z 18011KT 24/15 A2998 RMK A01 T02390150  RH  058%=      5-min Rain = 0
KNH1 191157Z 18011KT 24/15 A2998 RMK A01 T02390150  RH  058%=      5-min Rain = 0
KNH1 191158Z 18012KT 24/15 A2998 RMK A01 T02390150  RH  058%=      5-min Rain = 0
KNH1 191159Z 18010KT 24/15 A2998 RMK A01 T02390151  RH  058%=      5-min Rain = 0
KNH1 191200Z 18009KT 24/15 A2998 RMK A01 T02380150  RH  058%=      5-min Rain = 0
KNH1 191201Z 18010KT 24/15 A2998 RMK A01 T02380151  RH  058%=      5-min Rain = 0
KNH1 191202Z 17009KT 24/15 A2998 RMK A01 T02380151  RH  058%=      5-min Rain = 0
KNH1 191203Z 18011KT 24/15 A2998 RMK A01 T02380151  RH  058%=      5-min Rain = 0
KNH1 191204Z 18012KT 24/15 A2998 RMK A01 T02380152  RH  058%=      5-min Rain = 0
KNH1 191205Z 18011KT 24/15 A2998 RMK A01 T02380151  RH  058%=      5-min Rain = 0
KNH1 191206Z 17011KT 24/15 A2998 RMK A01 T02380151  RH  058%=      5-min Rain = 0
KNH1 191207Z 18011KT 24/15 A2998 RMK A01 T02390152  RH  058%=      5-min Rain = 0
KNH1 191208Z 18011KT 24/15 A2998 RMK A01 T02390151  RH  058%=      5-min Rain = 0
KNH1 191209Z 18011KT 24/15 A2999 RMK A01 T02390152  RH  058%=      5-min Rain = 0
KNH1 191210Z 18011KT 24/15 A2999 RMK A01 T02390152  RH  058%=      5-min Rain = 0
KNH1 191211Z 17010KT 24/15 A2999 RMK A01 T02390152  RH  058%=      5-min Rain = 0
KNH1 191212Z 18009KT 24/15 A2999 RMK A01 T02390152  RH  058%=      5-min Rain = 0
KNH1 191213Z 18010KT 24/15 A2999 RMK A01 T02390152  RH  058%=      5-min Rain = 0
KNH1 191214Z 18010KT 24/15 A2999 RMK A01 T02390152  RH  058%=      5-min Rain = 0
KNH1 191215Z 18009KT 24/15 A2999 RMK A01 T02390152  RH  058%=      5-min Rain = 0
KNH1 191216Z 18010KT 24/15 A2999 RMK A01 T02390153  RH  058%=      5-min Rain = 0
KNH1 191217Z 18009KT 24/15 A2999 RMK A01 T02390153  RH  059%=      5-min Rain = 0
KNH1 191218Z 17011KT 24/15 A2998 RMK A01 T02390153  RH  059%=      5-min Rain = 0
KNH1 191219Z 18010KT 24/15 A2999 RMK A01 T02390153  RH  059%=      5-min Rain = 0
KNH1 191220Z 18010KT 24/15 A2999 RMK A01 T02390153  RH  059%=      5-min Rain = 0
KNH1 191221Z 18011KT 24/15 A2999 RMK A01 T02390154  RH  059%=      5-min Rain = 0
KNH1 191222Z 18010KT 24/15 A2999 RMK A01 T02390153  RH  059%=      5-min Rain = 0
KNH1 191223Z 18010KT 24/15 A2998 RMK A01 T02390154  RH  059%=      5-min Rain = 0
KNH1 191224Z 18011KT 24/15 A2998 RMK A01 T02390154  RH  059%=      5-min Rain = 0
KNH1 191225Z 18010KT 24/15 A2998 RMK A01 T02390154  RH  059%=      5-min Rain = 0
KNH1 191226Z 18012KT 24/15 A2999 RMK A01 T02390154  RH  059%=      5-min Rain = 0
KNH1 191227Z 18010KT 24/15 A2999 RMK A01 T02390154  RH  059%=      5-min Rain = 0
KNH1 191228Z 18012KT 24/16 A2999 RMK A01 T02400155  RH  059%=      5-min Rain = 0
KNH1 191229Z 18011KT 24/16 A2998 RMK A01 T02400155  RH  059%=      5-min Rain = 0
KNH1 191230Z 18011KT 24/16 A2998 RMK A01 T02400155  RH  059%=      5-min Rain = 0
KNH1 191231Z 18011KT 24/16 A2998 RMK A01 T02400155  RH  059%=      5-min Rain = 0
KNH1 191232Z 17010KT 24/16 A2998 RMK A01 T02400155  RH  059%=      5-min Rain = 0
KNH1 191233Z 18010KT 24/16 A2998 RMK A01 T02400155  RH  059%=      5-min Rain = 0
KNH1 191234Z 18010KT 24/16 A2998 RMK A01 T02400156  RH  059%=      5-min Rain = 0
KNH1 191235Z 18010KT 24/16 A2998 RMK A01 T02400156  RH  059%=      5-min Rain = 0
KNH1 191236Z 18012KT 24/16 A2998 RMK A01 T02400156  RH  059%=      5-min Rain = 0
KNH1 191237Z 18013KT 24/16 A2998 RMK A01 T02410156  RH  059%=      5-min Rain = 0
KNH1 191238Z 18012KT 24/16 A2998 RMK A01 T02410156  RH  059%=      5-min Rain = 0
KNH1 191239Z 18011KT 24/16 A2998 RMK A01 T02420157  RH  059%=      5-min Rain = 0
KNH1 191240Z 18011KT 24/16 A2998 RMK A01 T02420157  RH  059%=      5-min Rain = 0
KNH1 191241Z 18013KT 24/16 A2998 RMK A01 T02420157  RH  059%=      5-min Rain = 0
KNH1 191242Z 18011KT 24/16 A2998 RMK A01 T02420157  RH  059%=      5-min Rain = 0
KNH1 191243Z 18013G18KT 24/16 A2998 RMK A01 T02420157  RH  059%=      5-min Rain = 0
KNH1 191244Z 17012KT 24/16 A2998 RMK A01 T02430158  RH  059%=      5-min Rain = 0
KNH1 191245Z 18013KT 24/16 A2998 RMK A01 T02430158  RH  059%=      5-min Rain = 0
KNH1 191246Z 17012KT 24/16 A2998 RMK A01 T02430158  RH  059%=      5-min Rain = 0
KNH1 191247Z 17011KT 24/16 A2998 RMK A01 T02440159  RH  059%=      5-min Rain = 0
KNH1 191248Z 18010KT 24/16 A2998 RMK A01 T02440159  RH  059%=      5-min Rain = 0
KNH1 191249Z 18010KT 24/16 A2998 RMK A01 T02440159  RH  059%=      5-min Rain = 0
KNH1 191250Z 18009KT 24/16 A2998 RMK A01 T02440159  RH  059%=      5-min Rain = 0
KNH1 191251Z 18013G18KT 24/16 A2998 RMK A01 T02440160  RH  059%=      5-min Rain = 0
KNH1 191252Z 18013KT 25/16 A2998 RMK A01 T02450160  RH  059%=      5-min Rain = 0
KNH1 191253Z 18015G20KT 25/16 A2998 RMK A01 T02450160  RH  059%=      5-min Rain = 0
KNH1 191254Z 18013KT 25/16 A2998 RMK A01 T02450160  RH  059%=      5-min Rain = 0
KNH1 191255Z 18012KT 25/16 A2998 RMK A01 T02460160  RH  059%=      5-min Rain = 0
KNH1 191256Z 18012KT 25/16 A2998 RMK A01 T02460160  RH  059%=      5-min Rain = 0
KNH1 191257Z 17013KT 25/16 A2998 RMK A01 T02460160  RH  059%=      5-min Rain = 0
KNH1 191258Z 18012G18KT 25/16 A2998 RMK A01 T02460160  RH  059%=      5-min Rain = 0
KNH1 191259Z 17013KT 25/16 A2998 RMK A01 T02470161  RH  059%=      5-min Rain = 0
KNH1 191300Z 18014KT 25/16 A2998 RMK A01 T02470161  RH  059%=      5-min Rain = 0
KNH1 191301Z 18014KT 25/16 A2998 RMK A01 T02480161  RH  059%=      5-min Rain = 0
KNH1 191302Z 18012KT 25/16 A2998 RMK A01 T02480161  RH  059%=      5-min Rain = 0
KNH1 191303Z 18012KT 25/16 A2998 RMK A01 T02480162  RH  059%=      5-min Rain = 0
KNH1 191304Z 18015G21KT 25/16 A2998 RMK A01 T02480162  RH  059%=      5-min Rain = 0
KNH1 191305Z 18017KT 25/16 A2998 RMK A01 T02490162  RH  058%=      5-min Rain = 0
KNH1 191306Z 18015KT 25/16 A2998 RMK A01 T02490162  RH  058%=      5-min Rain = 0
KNH1 191307Z 18014KT 25/16 A2998 RMK A01 T02490162  RH  058%=      5-min Rain = 0
KNH1 191308Z 18014KT 25/16 A2998 RMK A01 T02490163  RH  058%=      5-min Rain = 0
KNH1 191309Z 18014G19KT 25/16 A2998 RMK A01 T02500163  RH  058%=      5-min Rain = 0
KNH1 191310Z 18016KT 25/16 A2998 RMK A01 T02500163  RH  058%=      5-min Rain = 0
KNH1 191311Z 18014KT 25/16 A2998 RMK A01 T02500163  RH  058%=      5-min Rain = 0
KNH1 191312Z 18015G21KT 25/16 A2998 RMK A01 T02510163  RH  058%=      5-min Rain = 0
KNH1 191313Z 18014KT 25/16 A2998 RMK A01 T02510163  RH  058%=      5-min Rain = 0
KNH1 191314Z 18014G21KT 25/16 A2998 RMK A01 T02510164  RH  058%=      5-min Rain = 0
KNH1 191315Z 18015KT 25/16 A2998 RMK A01 T02510164  RH  058%=      5-min Rain = 0
KNH1 191316Z 18012KT 25/16 A2998 RMK A01 T02520164  RH  058%=      5-min Rain = 0
KNH1 191317Z 18014KT 25/16 A2998 RMK A01 T02520164  RH  058%=      5-min Rain = 0
KNH1 191318Z 18016G21KT 25/16 A2998 RMK A01 T02530164  RH  058%=      5-min Rain = 0
KNH1 191319Z 18012KT 25/16 A2998 RMK A01 T02520164  RH  058%=      5-min Rain = 0
KNH1 191320Z 18013G18KT 25/17 A2998 RMK A01 T02530165  RH  058%=      5-min Rain = 0
KNH1 191321Z 18014KT 25/17 A2998 RMK A01 T02540165  RH  058%=      5-min Rain = 0
KNH1 191322Z 18014G19KT 25/17 A2998 RMK A01 T02540165  RH  058%=      5-min Rain = 0
KNH1 191323Z 18012KT 25/17 A2998 RMK A01 T02540166  RH  058%=      5-min Rain = 0
KNH1 191324Z 18012KT 26/17 A2998 RMK A01 T02550166  RH  058%=      5-min Rain = 0
KNH1 191325Z 18016KT 26/17 A2998 RMK A01 T02550166  RH  058%=      5-min Rain = 0
KNH1 191326Z 18015G20KT 26/17 A2998 RMK A01 T02560165  RH  057%=      5-min Rain = 0
KNH1 191327Z 18016KT 26/17 A2998 RMK A01 T02550165  RH  057%=      5-min Rain = 0
KNH1 191328Z 18012G17KT 26/17 A2998 RMK A01 T02560166  RH  058%=      5-min Rain = 0
KNH1 191329Z 18019KT 26/17 A2998 RMK A01 T02560166  RH  057%=      5-min Rain = 0
KNH1 191330Z 18016G21KT 26/17 A2998 RMK A01 T02560166  RH  057%=      5-min Rain = 0
KNH1 191331Z 18017KT 26/17 A2998 RMK A01 T02560166  RH  057%=      5-min Rain = 0
KNH1 191332Z 18016G21KT 26/17 A2998 RMK A01 T02570166  RH  057%=      5-min Rain = 0
KNH1 191333Z 18017KT 26/17 A2998 RMK A01 T02570166  RH  057%=      5-min Rain = 0
KNH1 191334Z 18016G22KT 26/17 A2998 RMK A01 T02570166  RH  057%=      5-min Rain = 0
KNH1 191335Z 18019G24KT 26/17 A2998 RMK A01 T02580167  RH  057%=      5-min Rain = 0
KNH1 191336Z 18017KT 26/17 A2998 RMK A01 T02580167  RH  057%=      5-min Rain = 0
KNH1 191337Z 19018KT 26/17 A2998 RMK A01 T02580167  RH  057%=      5-min Rain = 0
KNH1 191338Z 18016KT 26/17 A2998 RMK A01 T02580167  RH  057%=      5-min Rain = 0
KNH1 191339Z 19016G23KT 26/17 A2998 RMK A01 T02590168  RH  057%=      5-min Rain = 0
KNH1 191340Z 18016KT 26/17 A2998 RMK A01 T02590168  RH  057%=      5-min Rain = 0
KNH1 191341Z 19020KT 26/17 A2998 RMK A01 T02590167  RH  057%=      5-min Rain = 0
KNH1 191342Z 19018G23KT 26/17 A2998 RMK A01 T02600168  RH  057%=      5-min Rain = 0
KNH1 191343Z 18017KT 26/17 A2998 RMK A01 T02590168  RH  057%=      5-min Rain = 0
KNH1 191344Z 18016G22KT 26/17 A2998 RMK A01 T02590168  RH  057%=      5-min Rain = 0
KNH1 191345Z 18016KT 26/17 A2998 RMK A01 T02600167  RH  057%=      5-min Rain = 0
KNH1 191346Z 18015KT 26/17 A2998 RMK A01 T02600167  RH  057%=      5-min Rain = 0
KNH1 191347Z 18018KT 26/17 A2998 RMK A01 T02600168  RH  057%=      5-min Rain = 0
KNH1 191348Z 19016G21KT 26/17 A2998 RMK A01 T02610168  RH  057%=      5-min Rain = 0
KNH1 191349Z 19016KT 26/17 A2998 RMK A01 T02610169  RH  057%=      5-min Rain = 0
KNH1 191350Z 19015G21KT 26/17 A2998 RMK A01 T02610168  RH  057%=      5-min Rain = 0
KNH1 191351Z 19015KT 26/17 A2998 RMK A01 T02620169  RH  056%=      5-min Rain = 0
KNH1 191352Z 19019KT 26/17 A2998 RMK A01 T02630169  RH  056%=      5-min Rain = 0
KNH1 191353Z 18016KT 26/17 A2998 RMK A01 T02630168  RH  056%=      5-min Rain = 0
KNH1 191354Z 18017KT 26/17 A2998 RMK A01 T02620169  RH  056%=      5-min Rain = 0
KNH1 191355Z 18013G19KT 26/17 A2998 RMK A01 T02630169  RH  056%=      5-min Rain = 0
KNH1 191356Z 18017KT 26/17 A2998 RMK A01 T02630169  RH  056%=      5-min Rain = 0
KNH1 191357Z 18019G24KT 26/17 A2998 RMK A01 T02630169  RH  056%=      5-min Rain = 0
KNH1 191358Z 18015KT 26/17 A2998 RMK A01 T02640169  RH  056%=      5-min Rain = 0
KNH1 191359Z 18018KT 26/17 A2998 RMK A01 T02640169  RH  056%=      5-min Rain = 0
KNH1 191400Z 18018G23KT 26/17 A2998 RMK A01 T02640169  RH  056%=      5-min Rain = 0
KNH1 191401Z 18017KT 26/17 A2998 RMK A01 T02640169  RH  056%=      5-min Rain = 0
KNH1 191402Z 19017KT 26/17 A2998 RMK A01 T02640169  RH  056%=      5-min Rain = 0
KNH1 191403Z 19015G20KT 27/17 A2998 RMK A01 T02650170  RH  056%=      5-min Rain = 0
KNH1 191404Z 18017KT 27/17 A2999 RMK A01 T02650170  RH  056%=      5-min Rain = 0
KNH1 191405Z 19017KT 27/17 A2999 RMK A01 T02650169  RH  056%=      5-min Rain = 0
KNH1 191406Z 19015KT 27/17 A2999 RMK A01 T02660170  RH  056%=      5-min Rain = 0
KNH1 191407Z 19019KT 27/17 A2999 RMK A01 T02660170  RH  056%=      5-min Rain = 0
KNH1 191408Z 18018G23KT 27/17 A2999 RMK A01 T02660170  RH  055%=      5-min Rain = 0
KNH1 191409Z 18020KT 27/17 A2999 RMK A01 T02660170  RH  055%=      5-min Rain = 0
KNH1 191410Z 18019KT 27/17 A2999 RMK A01 T02660169  RH  055%=      5-min Rain = 0
KNH1 191411Z 19018G23KT 27/17 A2999 RMK A01 T02660169  RH  055%=      5-min Rain = 0
KNH1 191412Z 19016KT 27/17 A2999 RMK A01 T02670170  RH  056%=      5-min Rain = 0
KNH1 191413Z 18017KT 27/17 A2999 RMK A01 T02680170  RH  055%=      5-min Rain = 0
KNH1 191414Z 18016KT 27/17 A2999 RMK A01 T02680170  RH  055%=      5-min Rain = 0
KNH1 191415Z 19017G22KT 27/17 A2999 RMK A01 T02690170  RH  054%=      5-min Rain = 0
KNH1 191416Z 19016KT 27/17 A2999 RMK A01 T02690171  RH  055%=      5-min Rain = 0
KNH1 191417Z 19017KT 27/17 A2999 RMK A01 T02700171  RH  055%=      5-min Rain = 0
KNH1 191418Z 19018KT 27/17 A2999 RMK A01 T02700171  RH  055%=      5-min Rain = 0
KNH1 191419Z 19013G20KT 27/17 A2999 RMK A01 T02700171  RH  055%=      5-min Rain = 0
KNH1 191420Z 19015G20KT 27/17 A2999 RMK A01 T02700173  RH  055%=      5-min Rain = 0
KNH1 191421Z 19019KT 27/17 A2999 RMK A01 T02710171  RH  054%=      5-min Rain = 0
KNH1 191422Z 19017KT 27/17 A2999 RMK A01 T02710172  RH  054%=      5-min Rain = 0
KNH1 191423Z 19015KT 27/17 A2999 RMK A01 T02710172  RH  055%=      5-min Rain = 0
KNH1 191424Z 19016KT 27/17 A2999 RMK A01 T02730172  RH  054%=      5-min Rain = 0
KNH1 191425Z 19019KT 27/17 A2999 RMK A01 T02740171  RH  054%=      5-min Rain = 0
KNH1 191426Z 19018KT 27/17 A2999 RMK A01 T02730171  RH  053%=      5-min Rain = 0
KNH1 191427Z 19018KT 27/17 A2999 RMK A01 T02730171  RH  054%=      5-min Rain = 0
KNH1 191428Z 19018KT 27/17 A2999 RMK A01 T02720171  RH  054%=      5-min Rain = 0
KNH1 191429Z 19016KT 27/17 A2999 RMK A01 T02720172  RH  054%=      5-min Rain = 0
KNH1 191430Z 18019KT 27/17 A2999 RMK A01 T02730172  RH  054%=      5-min Rain = 0
KNH1 191431Z 20021KT 27/17 A2999 RMK A01 T02730171  RH  054%=      5-min Rain = 0
KNH1 191432Z 20017G22KT 27/17 A2999 RMK A01 T02740171  RH  053%=      5-min Rain = 0
KNH1 191433Z 20020KT 27/17 A2999 RMK A01 T02730171  RH  054%=      5-min Rain = 0
KNH1 191434Z 19019KT 27/17 A2999 RMK A01 T02730171  RH  054%=      5-min Rain = 0
KNH1 191435Z 19018KT 27/17 A2999 RMK A01 T02730171  RH  054%=      5-min Rain = 0
KNH1 191436Z 19016G21KT 27/17 A2999 RMK A01 T02730171  RH  054%=      5-min Rain = 0
KNH1 191437Z 20019KT 27/17 A2999 RMK A01 T02740171  RH  053%=      5-min Rain = 0
KNH1 191438Z 19014G20KT 28/17 A2999 RMK A01 T02750172  RH  054%=      5-min Rain = 0
KNH1 191439Z 18018KT 28/17 A2999 RMK A01 T02760172  RH  053%=      5-min Rain = 0
KNH1 191440Z 19014KT 28/17 A2999 RMK A01 T02770173  RH  053%=      5-min Rain = 0
KNH1 191441Z 18019KT 28/17 A2999 RMK A01 T02780173  RH  053%=      5-min Rain = 0
KNH1 191442Z 18019G24KT 28/17 A2999 RMK A01 T02780171  RH  052%=      5-min Rain = 0
KNH1 191443Z 19017KT 28/17 A2999 RMK A01 T02770172  RH  053%=      5-min Rain = 0
KNH1 191444Z 19016KT 28/17 A2999 RMK A01 T02770172  RH  053%=      5-min Rain = 0
KNH1 191445Z 19019KT 28/17 A2999 RMK A01 T02780172  RH  052%=      5-min Rain = 0
KNH1 191446Z 19017KT 28/17 A2999 RMK A01 T02780172  RH  053%=      5-min Rain = 0
KNH1 191447Z 18018KT 28/17 A2999 RMK A01 T02770172  RH  053%=      5-min Rain = 0
KNH1 191448Z 18018G23KT 28/17 A2999 RMK A01 T02780170  RH  052%=      5-min Rain = 0
KNH1 191449Z 19017KT 28/17 A2999 RMK A01 T02780171  RH  052%=      5-min Rain = 0
KNH1 191450Z 19016G21KT 28/17 A2999 RMK A01 T02790172  RH  052%=      5-min Rain = 0
KNH1 191451Z 19015G20KT 28/17 A2999 RMK A01 T02800174  RH  052%=      5-min Rain = 0
KNH1 191452Z 19016KT 28/17 A2999 RMK A01 T02810173  RH  052%=      5-min Rain = 0
KNH1 191453Z 19017KT 28/17 A2999 RMK A01 T02820173  RH  052%=      5-min Rain = 0
KNH1 191454Z 19019KT 28/17 A2999 RMK A01 T02810172  RH  052%=      5-min Rain = 0
KNH1 191455Z 19017KT 28/17 A2999 RMK A01 T02800171  RH  052%=      5-min Rain = 0
KNH1 191456Z 19018KT 28/17 A2999 RMK A01 T02800172  RH  052%=      5-min Rain = 0
KNH1 191457Z 20015KT 28/17 A2999 RMK A01 T02800173  RH  052%=      5-min Rain = 0
KNH1 191458Z 19015G20KT 28/17 A2999 RMK A01 T02810174  RH  052%=      5-min Rain = 0
KNH1 191459Z 20016KT 28/17 A2999 RMK A01 T02820174  RH  052%=      5-min Rain = 0
KNH1 191500Z 20016KT 28/17 A2999 RMK A01 T02830173  RH  051%=      5-min Rain = 0
KNH1 191501Z 20014KT 28/18 A2999 RMK A01 T02830175  RH  052%=      5-min Rain = 0
KNH1 191502Z 19014KT 28/18 A2999 RMK A01 T02840175  RH  052%=      5-min Rain = 0
KNH1 191503Z 19014KT 29/18 A2999 RMK A01 T02850175  RH  051%=      5-min Rain = 0
KNH1 191504Z 19015G20KT 29/18 A2999 RMK A01 T02860175  RH  051%=      5-min Rain = 0
KNH1 191505Z 20016KT 29/18 A2999 RMK A01 T02880176  RH  051%=      5-min Rain = 0
KNH1 191506Z 20017KT 29/17 A2999 RMK A01 T02870174  RH  050%=      5-min Rain = 0
KNH1 191507Z 20017KT 29/17 A2999 RMK A01 T02870174  RH  051%=      5-min Rain = 0
KNH1 191508Z 19019KT 29/17 A2999 RMK A01 T02860174  RH  051%=      5-min Rain = 0
KNH1 191509Z 19017KT 29/17 A2999 RMK A01 T02850173  RH  051%=      5-min Rain = 0
KNH1 191510Z 19017KT 28/17 A2999 RMK A01 T02840174  RH  051%=      5-min Rain = 0
KNH1 191511Z 19019KT 29/17 A2999 RMK A01 T02850173  RH  051%=      5-min Rain = 0
KNH1 191512Z 20019KT 29/17 A2999 RMK A01 T02860172  RH  050%=      5-min Rain = 0
KNH1 191513Z 19016G21KT 29/17 A2999 RMK A01 T02850174  RH  051%=      5-min Rain = 0
KNH1 191514Z 19018KT 29/17 A2999 RMK A01 T02850174  RH  051%=      5-min Rain = 0
KNH1 191515Z 19016KT 29/17 A2999 RMK A01 T02850174  RH  051%=      5-min Rain = 0
KNH1 191516Z 19018KT 29/17 A2999 RMK A01 T02850174  RH  051%=      5-min Rain = 0
KNH1 191517Z 18017KT 29/17 A2999 RMK A01 T02860173  RH  050%=      5-min Rain = 0
KNH1 191518Z 19017KT 29/17 A2999 RMK A01 T02860174  RH  051%=      5-min Rain = 0
KNH1 191519Z 19014G19KT 29/18 A2999 RMK A01 T02870175  RH  051%=      5-min Rain = 0
KNH1 191520Z 19018KT 29/18 A2999 RMK A01 T02900175  RH  050%=      5-min Rain = 0
KNH1 191521Z 19017KT 29/18 A2999 RMK A01 T02910175  RH  050%=      5-min Rain = 0
KNH1 191522Z 20017KT 29/17 A2999 RMK A01 T02900173  RH  049%=      5-min Rain = 0
KNH1 191523Z 20015KT 29/17 A2999 RMK A01 T02890174  RH  050%=      5-min Rain = 0
KNH1 191524Z 19017KT 29/18 A2999 RMK A01 T02900175  RH  050%=      5-min Rain = 0
KNH1 191525Z 20017KT 29/17 A2999 RMK A01 T02900174  RH  050%=      5-min Rain = 0
KNH1 191526Z 19017KT 29/17 A2999 RMK A01 T02900174  RH  049%=      5-min Rain = 0
KNH1 191527Z 19018KT 29/17 A2999 RMK A01 T02900174  RH  049%=      5-min Rain = 0
KNH1 191528Z 19019KT 29/17 A2999 RMK A01 T02900174  RH  049%=      5-min Rain = 0
KNH1 191529Z 19018G23KT 29/17 A2999 RMK A01 T02910174  RH  049%=      5-min Rain = 0
KNH1 191530Z 19018KT 29/18 A2999 RMK A01 T02910175  RH  050%=      5-min Rain = 0
KNH1 191531Z 19016KT 29/17 A2999 RMK A01 T02910174  RH  049%=      5-min Rain = 0
KNH1 191532Z 20016KT 29/18 A2999 RMK A01 T02920175  RH  049%=      5-min Rain = 0
KNH1 191533Z 20015G20KT 29/18 A2999 RMK A01 T02920175  RH  049%=      5-min Rain = 0
KNH1 191534Z 20016KT 29/18 A2999 RMK A01 T02930175  RH  049%=      5-min Rain = 0
KNH1 191535Z 19015KT 29/18 A2999 RMK A01 T02930176  RH  049%=      5-min Rain = 0
KNH1 191536Z 19015KT 29/18 A2999 RMK A01 T02930175  RH  049%=      5-min Rain = 0
KNH1 191537Z 20015KT 29/18 A2999 RMK A01 T02940177  RH  049%=      5-min Rain = 0
KNH1 191538Z 20017KT 30/18 A2999 RMK A01 T02950176  RH  049%=      5-min Rain = 0
KNH1 191539Z 19015KT 30/18 A2999 RMK A01 T02960176  RH  049%=      5-min Rain = 0
KNH1 191540Z 19015KT 30/18 A2999 RMK A01 T02970176  RH  048%=      5-min Rain = 0
KNH1 191541Z 19015KT 30/18 A2999 RMK A01 T02970176  RH  048%=      5-min Rain = 0
KNH1 191542Z 19015KT 30/18 A2999 RMK A01 T02980175  RH  048%=      5-min Rain = 0
KNH1 191543Z 19017KT 30/18 A2999 RMK A01 T02980176  RH  048%=      5-min Rain = 0
KNH1 191544Z 18017KT 30/18 A2999 RMK A01 T02980175  RH  048%=      5-min Rain = 0
KNH1 191545Z 19015KT 30/18 A2999 RMK A01 T02980175  RH  048%=      5-min Rain = 0
KNH1 191546Z 18017KT 30/18 A2999 RMK A01 T02990176  RH  048%=      5-min Rain = 0
KNH1 191547Z 19016KT 30/18 A2999 RMK A01 T02990175  RH  047%=      5-min Rain = 0
KNH1 191548Z 19015KT 30/18 A2999 RMK A01 T02990176  RH  048%=      5-min Rain = 0
KNH1 191549Z 19015KT 30/18 A2999 RMK A01 T02980176  RH  048%=      5-min Rain = 0
KNH1 191550Z 18014KT 30/18 A2999 RMK A01 T02980178  RH  048%=      5-min Rain = 0
KNH1 191551Z 19015KT 30/18 A2999 RMK A01 T03000177  RH  048%=      5-min Rain = 0
KNH1 191552Z 19015KT 30/18 A2999 RMK A01 T03020178  RH  047%=      5-min Rain = 0
KNH1 191553Z 21012KT 30/18 A2999 RMK A01 T03030178  RH  047%=      5-min Rain = 0
KNH1 191554Z 21016KT 30/18 A2999 RMK A01 T03040179  RH  047%=      5-min Rain = 0
KNH1 191555Z 20015KT 31/18 A2999 RMK A01 T03050176  RH  046%=      5-min Rain = 0
KNH1 191556Z 20016KT 31/18 A2999 RMK A01 T03060176  RH  046%=      5-min Rain = 0
KNH1 191557Z 21017KT 31/18 A2999 RMK A01 T03050176  RH  046%=      5-min Rain = 0
KNH1 191558Z 21016G21KT 30/18 A2999 RMK A01 T03040175  RH  046%=      5-min Rain = 0
KNH1 191559Z 20013KT 30/18 A2999 RMK A01 T03030177  RH  047%=      5-min Rain = 0
KNH1 191600Z 19014KT 30/18 A2999 RMK A01 T03040177  RH  047%=      5-min Rain = 0
KNH1 191601Z 19016KT 30/18 A2999 RMK A01 T03040176  RH  046%=      5-min Rain = 0
KNH1 191602Z 19015KT 30/18 A2999 RMK A01 T03040176  RH  046%=      5-min Rain = 0
KNH1 191603Z 20014KT 31/18 A2999 RMK A01 T03050177  RH  046%=      5-min Rain = 0
KNH1 191604Z 19018KT 31/18 A2999 RMK A01 T03060176  RH  046%=      5-min Rain = 0
KNH1 191605Z 19018G23KT 31/18 A2999 RMK A01 T03060175  RH  046%=      5-min Rain = 0
KNH1 191606Z 19015G20KT 31/18 A2999 RMK A01 T03050176  RH  046%=      5-min Rain = 0
KNH1 191607Z 19017KT 31/18 A2999 RMK A01 T03060176  RH  046%=      5-min Rain = 0
KNH1 191608Z 20017KT 31/17 A2999 RMK A01 T03060174  RH  045%=      5-min Rain = 0
KNH1 191609Z 19015KT 31/18 A2999 RMK A01 T03060175  RH  046%=      5-min Rain = 0
KNH1 191610Z 20015KT 31/18 A2999 RMK A01 T03060177  RH  046%=      5-min Rain = 0
KNH1 191611Z 20016KT 31/18 A2999 RMK A01 T03060175  RH  045%=      5-min Rain = 0
KNH1 191612Z 18013G20KT 31/18 A2999 RMK A01 T03080179  RH  046%=      5-min Rain = 0
KNH1 191613Z 19017KT 31/18 A2999 RMK A01 T03110177  RH  045%=      5-min Rain = 0
KNH1 191614Z 20015KT 31/18 A2999 RMK A01 T03110175  RH  044%=      5-min Rain = 0
KNH1 191615Z 20016KT 31/18 A2999 RMK A01 T03100175  RH  045%=      5-min Rain = 0
KNH1 191616Z 19013KT 31/18 A2999 RMK A01 T03090176  RH  045%=      5-min Rain = 0
KNH1 191617Z 20014G19KT 31/18 A2999 RMK A01 T03090178  RH  046%=      5-min Rain = 0
KNH1 191618Z 19016KT 31/18 A2999 RMK A01 T03110176  RH  045%=      5-min Rain = 0
KNH1 191619Z 18010KT 31/18 A2999 RMK A01 T03090175  RH  045%=      5-min Rain = 0
KNH1 191620Z 19012KT 31/18 A2999 RMK A01 T03090177  RH  045%=      5-min Rain = 0
KNH1 191621Z 19016KT 31/18 A2998 RMK A01 T03120178  RH  045%=      5-min Rain = 0
KNH1 191622Z 19015KT 31/18 A2998 RMK A01 T03130177  RH  044%=      5-min Rain = 0
KNH1 191623Z 20015KT 31/18 A2998 RMK A01 T03140177  RH  044%=      5-min Rain = 0
KNH1 191624Z 20016KT 31/18 A2998 RMK A01 T03130178  RH  045%=      5-min Rain = 0
KNH1 191625Z 20016KT 31/18 A2998 RMK A01 T03130176  RH  044%=      5-min Rain = 0
KNH1 191626Z 19012KT 31/18 A2999 RMK A01 T03140180  RH  045%=      5-min Rain = 0
KNH1 191627Z 19016KT 32/18 A2998 RMK A01 T03180178  RH  043%=      5-min Rain = 0
KNH1 191628Z 19013KT 32/18 A2999 RMK A01 T03180178  RH  043%=      5-min Rain = 0
KNH1 191629Z 19015KT 32/18 A2998 RMK A01 T03180176  RH  043%=      5-min Rain = 0
KNH1 191630Z 19014KT 32/18 A2998 RMK A01 T03170178  RH  043%=      5-min Rain = 0
KNH1 191631Z 20017KT 32/18 A2998 RMK A01 T03170178  RH  043%=      5-min Rain = 0
KNH1 191632Z 20018KT 32/18 A2998 RMK A01 T03180175  RH  042%=      5-min Rain = 0
KNH1 191633Z 20015KT 32/18 A2998 RMK A01 T03170176  RH  043%=      5-min Rain = 0
KNH1 191634Z 20013KT 32/18 A2998 RMK A01 T03190179  RH  043%=      5-min Rain = 0
KNH1 191635Z 20012KT 32/18 A2998 RMK A01 T03200177  RH  043%=      5-min Rain = 0
KNH1 191636Z 20013KT 32/18 A2998 RMK A01 T03210179  RH  043%=      5-min Rain = 0
KNH1 191637Z 19016G21KT 32/18 A2998 RMK A01 T03230180  RH  043%=      5-min Rain = 0
KNH1 191638Z 20018KT 32/18 A2998 RMK A01 T03220176  RH  042%=      5-min Rain = 0
KNH1 191639Z 20018KT 32/18 A2998 RMK A01 T03200176  RH  042%=      5-min Rain = 0
KNH1 191640Z 19013KT 32/18 A2998 RMK A01 T03190177  RH  043%=      5-min Rain = 0
KNH1 191641Z 18014KT 32/18 A2998 RMK A01 T03190175  RH  042%=      5-min Rain = 0
KNH1 191642Z 20014G19KT 32/18 A2998 RMK A01 T03200176  RH  042%=      5-min Rain = 0
KNH1 191643Z 21014KT 32/18 A2998 RMK A01 T03240176  RH  041%=      5-min Rain = 0
KNH1 191644Z 20013KT 32/18 A2998 RMK A01 T03230176  RH  042%=      5-min Rain = 0
KNH1 191645Z 19015KT 32/18 A2998 RMK A01 T03220177  RH  042%=      5-min Rain = 0
KNH1 191646Z 19014KT 32/18 A2998 RMK A01 T03230179  RH  042%=      5-min Rain = 0
KNH1 191647Z 18014KT 33/18 A2998 RMK A01 T03250179  RH  042%=      5-min Rain = 0
KNH1 191648Z 20013G19KT 33/18 A2998 RMK A01 T03250179  RH  042%=      5-min Rain = 0
KNH1 191649Z 19018KT 32/18 A2998 RMK A01 T03240177  RH  042%=      5-min Rain = 0
KNH1 191650Z 21017KT 32/18 A2998 RMK A01 T03240176  RH  041%=      5-min Rain = 0
KNH1 191651Z 19015KT 33/18 A2998 RMK A01 T03250175  RH  041%=      5-min Rain = 0
KNH1 191652Z 19015KT 33/17 A2998 RMK A01 T03270174  RH  040%=      5-min Rain = 0
KNH1 191653Z 21013G18KT 33/18 A2998 RMK A01 T03260176  RH  041%=      5-min Rain = 0
KNH1 191654Z 21014KT 33/18 A2998 RMK A01 T03260176  RH  041%=      5-min Rain = 0
KNH1 191655Z 20016KT 33/17 A2998 RMK A01 T03260174  RH  040%=      5-min Rain = 0
KNH1 191656Z 19016KT 33/18 A2998 RMK A01 T03260175  RH  041%=      5-min Rain = 0
KNH1 191657Z 19012G18KT 33/18 A2998 RMK A01 T03260175  RH  041%=      5-min Rain = 0
KNH1 191658Z 20012KT 33/18 A2998 RMK A01 T03280178  RH  041%=      5-min Rain = 0
KNH1 191659Z 21017KT 33/17 A2998 RMK A01 T03290174  RH  040%=      5-min Rain = 0
KNH1 191700Z 20016KT 33/18 A2998 RMK A01 T03280175  RH  040%=      5-min Rain = 0
KNH1 191701Z 19015KT 33/17 A2998 RMK A01 T03280173  RH  040%=      5-min Rain = 0
KNH1 191702Z 19015KT 33/18 A2998 RMK A01 T03270176  RH  041%=      5-min Rain = 0
KNH1 191703Z 19011G17KT 33/18 A2998 RMK A01 T03280176  RH  040%=      5-min Rain = 0
KNH1 191704Z 20018KT 33/18 A2998 RMK A01 T03300175  RH  040%=      5-min Rain = 0
KNH1 191705Z 21012KT 33/17 A2998 RMK A01 T03310172  RH  039%=      5-min Rain = 0
KNH1 191706Z 21014KT 33/17 A2998 RMK A01 T03300173  RH  039%=      5-min Rain = 0
KNH1 191707Z 20015KT 33/18 A2998 RMK A01 T03300175  RH  040%=      5-min Rain = 0
KNH1 191708Z 20016KT 33/17 A2998 RMK A01 T03310174  RH  039%=      5-min Rain = 0
KNH1 191709Z 21013KT 33/17 A2998 RMK A01 T03310173  RH  039%=      5-min Rain = 0
KNH1 191710Z 20014KT 33/18 A2998 RMK A01 T03310176  RH  040%=      5-min Rain = 0
KNH1 191711Z 19016KT 33/18 A2998 RMK A01 T03330177  RH  040%=      5-min Rain = 0
KNH1 191712Z 20013KT 33/18 A2998 RMK A01 T03340177  RH  039%=      5-min Rain = 0
KNH1 191713Z 21013KT 33/18 A2998 RMK A01 T03340175  RH  039%=      5-min Rain = 0
KNH1 191714Z 20014KT 33/18 A2998 RMK A01 T03340177  RH  039%=      5-min Rain = 0
KNH1 191715Z 20012KT 33/17 A2998 RMK A01 T03340174  RH  039%=      5-min Rain = 0
KNH1 191716Z 19012G17KT 33/18 A2997 RMK A01 T03300175  RH  040%=      5-min Rain = 0
KNH1 191717Z 20015KT 33/18 A2998 RMK A01 T03320175  RH  039%=      5-min Rain = 0
KNH1 191718Z 20011KT 33/18 A2998 RMK A01 T03340176  RH  039%=      5-min Rain = 0
KNH1 191719Z 19013KT 33/18 A2997 RMK A01 T03340175  RH  039%=      5-min Rain = 0
KNH1 191720Z 21014KT 33/18 A2998 RMK A01 T03340175  RH  039%=      5-min Rain = 0
KNH1 191721Z 20011KT 34/17 A2998 RMK A01 T03350174  RH  038%=      5-min Rain = 0
KNH1 191722Z 20011KT 34/18 A2998 RMK A01 T03360177  RH  039%=      5-min Rain = 0
KNH1 191723Z 21014KT 34/18 A2998 RMK A01 T03380176  RH  038%=      5-min Rain = 0
KNH1 191724Z 22011KT 34/18 A2998 RMK A01 T03380175  RH  038%=      5-min Rain = 0
KNH1 191725Z 22012G19KT 34/18 A2997 RMK A01 T03400179  RH  039%=      5-min Rain = 0
KNH1 191726Z 21014KT 34/18 A2998 RMK A01 T03430176  RH  037%=      5-min Rain = 0
KNH1 191727Z 22011KT 34/18 A2998 RMK A01 T03430175  RH  037%=      5-min Rain = 0
KNH1 191728Z 20013G18KT 34/18 A2998 RMK A01 T03430176  RH  037%=      5-min Rain = 0
KNH1 191729Z 19011KT 34/17 A2998 RMK A01 T03420174  RH  037%=      5-min Rain = 0
KNH1 191730Z 20015KT 34/18 A2998 RMK A01 T03400176  RH  038%=      5-min Rain = 0
KNH1 191731Z 20014G19KT 34/18 A2998 RMK A01 T03410175  RH  037%=      5-min Rain = 0
KNH1 191732Z 20015KT 34/18 A2998 RMK A01 T03400176  RH  038%=      5-min Rain = 0
KNH1 191733Z 20014KT 34/17 A2998 RMK A01 T03410174  RH  037%=      5-min Rain = 0
KNH1 191734Z 20013KT 34/17 A2998 RMK A01 T03410174  RH  037%=      5-min Rain = 0
KNH1 191735Z 19011G17KT 34/18 A2998 RMK A01 T03410176  RH  038%=      5-min Rain = 0
KNH1 191736Z 18013KT 34/18 A2998 RMK A01 T03420175  RH  037%=      5-min Rain = 0
KNH1 191737Z 18013KT 34/17 A2998 RMK A01 T03410173  RH  037%=      5-min Rain = 0
KNH1 191738Z 20012KT 34/18 A2998 RMK A01 T03400175  RH  038%=      5-min Rain = 0
KNH1 191739Z 19013KT 34/17 A2998 RMK A01 T03420174  RH  037%=      5-min Rain = 0
KNH1 191740Z 20014KT 34/18 A2998 RMK A01 T03420175  RH  037%=      5-min Rain = 0
KNH1 191741Z 19012KT 34/18 A2998 RMK A01 T03430175  RH  037%=      5-min Rain = 0
KNH1 191742Z 19011KT 35/18 A2998 RMK A01 T03450177  RH  037%=      5-min Rain = 0
KNH1 191743Z 20011G16KT 35/18 A2998 RMK A01 T03480179  RH  037%=      5-min Rain = 0
KNH1 191744Z 21013KT 35/18 A2998 RMK A01 T03490177  RH  036%=      5-min Rain = 0
KNH1 191745Z 20014KT 35/18 A2997 RMK A01 T03490176  RH  036%=      5-min Rain = 0
KNH1 191746Z 19013KT 35/18 A2997 RMK A01 T03480176  RH  036%=      5-min Rain = 0
KNH1 191747Z 19015KT 35/18 A2997 RMK A01 T03470175  RH  036%=      5-min Rain = 0
KNH1 191748Z 20013KT 35/17 A2997 RMK A01 T03460174  RH  036%=      5-min Rain = 0
KNH1 191749Z 21012KT 35/18 A2997 RMK A01 T03460177  RH  037%=      5-min Rain = 0
KNH1 191750Z 19010KT 35/18 A2997 RMK A01 T03490179  RH  037%=      5-min Rain = 0
KNH1 191751Z 20015KT 35/18 A2997 RMK A01 T03510176  RH  036%=      5-min Rain = 0
KNH1 191752Z 22014G19KT 35/17 A2997 RMK A01 T03510174  RH  035%=      5-min Rain = 0
KNH1 191753Z 21014KT 35/18 A2997 RMK A01 T03500175  RH  035%=      5-min Rain = 0
KNH1 191754Z 21014KT 35/17 A2997 RMK A01 T03500170  RH  034%=      5-min Rain = 0
KNH1 191755Z 19012KT 35/17 A2997 RMK A01 T03470172  RH  035%=      5-min Rain = 0
KNH1 191756Z 20014KT 35/17 A2997 RMK A01 T03480174  RH  036%=      5-min Rain = 0
KNH1 191757Z 20014KT 35/18 A2997 RMK A01 T03500175  RH  036%=      5-min Rain = 0
KNH1 191758Z 21013KT 35/18 A2997 RMK A01 T03490175  RH  036%=      5-min Rain = 0
KNH1 191759Z 20015KT 35/17 A2997 RMK A01 T03500173  RH  035%=      5-min Rain = 0
KNH1 191800Z 21013KT 35/17 A2997 RMK A01 T03500170  RH  035%=      5-min Rain = 0
KNH1 191801Z 21013KT 35/17 A2997 RMK A01 T03470173  RH  036%=      5-min Rain = 0
KNH1 191802Z 19015G20KT 35/18 A2997 RMK A01 T03480175  RH  036%=      5-min Rain = 0
KNH1 191803Z 20015KT 35/17 A2997 RMK A01 T03500174  RH  035%=      5-min Rain = 0
KNH1 191804Z 20016KT 35/17 A2997 RMK A01 T03500172  RH  035%=      5-min Rain = 0
KNH1 191805Z 21016KT 35/17 A2997 RMK A01 T03500171  RH  035%=      5-min Rain = 0
KNH1 191806Z 18014KT 35/17 A2997 RMK A01 T03490170  RH  035%=      5-min Rain = 0
KNH1 191807Z 19014G21KT 35/17 A2997 RMK A01 T03490170  RH  035%=      5-min Rain = 0
KNH1 191808Z 21018KT 35/17 A2997 RMK A01 T03520172  RH  035%=      5-min Rain = 0
KNH1 191809Z 20014KT 35/17 A2997 RMK A01 T03520171  RH  034%=      5-min Rain = 0
KNH1 191810Z 20013KT 35/17 A2997 RMK A01 T03520173  RH  035%=      5-min Rain = 0
KNH1 191811Z 20016KT 35/17 A2997 RMK A01 T03530172  RH  034%=      5-min Rain = 0
KNH1 191812Z 20014KT 35/17 A2997 RMK A01 T03510173  RH  035%=      5-min Rain = 0
KNH1 191813Z 20015G20KT 35/18 A2997 RMK A01 T03520175  RH  035%=      5-min Rain = 0
KNH1 191814Z 19014KT 35/17 A2997 RMK A01 T03540172  RH  034%=      5-min Rain = 0
KNH1 191815Z 19013KT 35/17 A2997 RMK A01 T03540173  RH  034%=      5-min Rain = 0
KNH1 191816Z 20017KT 35/17 A2997 RMK A01 T03540172  RH  034%=      5-min Rain = 0
KNH1 191817Z 20014KT 35/17 A2997 RMK A01 T03530171  RH  034%=      5-min Rain = 0
KNH1 191818Z 20015G20KT 35/17 A2997 RMK A01 T03510171  RH  034%=      5-min Rain = 0
KNH1 191819Z 20012G17KT 35/17 A2997 RMK A01 T03510172  RH  035%=      5-min Rain = 0
KNH1 191820Z 19014KT 36/18 A2997 RMK A01 T03550175  RH  034%=      5-min Rain = 0
KNH1 191821Z 19015KT 36/17 A2997 RMK A01 T03570174  RH  034%=      5-min Rain = 0
KNH1 191822Z 21015KT 36/17 A2997 RMK A01 T03570172  RH  033%=      5-min Rain = 0
KNH1 191823Z 21012KT 36/17 A2997 RMK A01 T03560169  RH  033%=      5-min Rain = 0
KNH1 191824Z 22012KT 36/17 A2997 RMK A01 T03550167  RH  033%=      5-min Rain = 0
KNH1 191825Z 22013KT 35/17 A2997 RMK A01 T03540169  RH  033%=      5-min Rain = 0
KNH1 191826Z 21013KT 36/17 A2996 RMK A01 T03550174  RH  034%=      5-min Rain = 0
KNH1 191827Z 20013KT 36/18 A2996 RMK A01 T03590175  RH  034%=      5-min Rain = 0
KNH1 191828Z 19015KT 36/17 A2997 RMK A01 T03600172  RH  033%=      5-min Rain = 0
KNH1 191829Z 19014KT 36/17 A2997 RMK A01 T03580172  RH  033%=      5-min Rain = 0
KNH1 191830Z 19015KT 36/17 A2997 RMK A01 T03560171  RH  034%=      5-min Rain = 0
KNH1 191831Z 19012KT 36/17 A2997 RMK A01 T03550171  RH  034%=      5-min Rain = 0
KNH1 191832Z 21011KT 35/17 A2997 RMK A01 T03530170  RH  034%=      5-min Rain = 0
KNH1 191833Z 20013KT 36/17 A2997 RMK A01 T03560171  RH  034%=      5-min Rain = 0
KNH1 191834Z 20012G17KT 36/17 A2996 RMK A01 T03580172  RH  033%=      5-min Rain = 0
KNH1 191835Z 20014G20KT 36/18 A2997 RMK A01 T03590175  RH  034%=      5-min Rain = 0
KNH1 191836Z 19016KT 36/17 A2997 RMK A01 T03610172  RH  033%=      5-min Rain = 0
KNH1 191837Z 20016KT 36/17 A2997 RMK A01 T03580171  RH  033%=      5-min Rain = 0
KNH1 191838Z 19010KT 36/17 A2997 RMK A01 T03550169  RH  033%=      5-min Rain = 0
KNH1 191839Z 17012KT 35/17 A2996 RMK A01 T03530169  RH  034%=      5-min Rain = 0
KNH1 191840Z 17012G17KT 35/17 A2996 RMK A01 T03540168  RH  033%=      5-min Rain = 0
KNH1 191841Z 20017KT 36/17 A2996 RMK A01 T03570169  RH  033%=      5-min Rain = 0
KNH1 191842Z 20016KT 36/17 A2997 RMK A01 T03580167  RH  032%=      5-min Rain = 0
KNH1 191843Z 20014KT 36/17 A2997 RMK A01 T03580166  RH  032%=      5-min Rain = 0
KNH1 191844Z 21014KT 36/17 A2997 RMK A01 T03570166  RH  032%=      5-min Rain = 0
KNH1 191845Z 22010KT 36/16 A2996 RMK A01 T03580164  RH  032%=      5-min Rain = 0
KNH1 191846Z 21011KT 36/17 A2996 RMK A01 T03580168  RH  032%=      5-min Rain = 0
KNH1 191847Z 19012KT 36/17 A2996 RMK A01 T03610172  RH  033%=      5-min Rain = 0
KNH1 191848Z 19012KT 36/17 A2996 RMK A01 T03630171  RH  032%=      5-min Rain = 0
KNH1 191849Z 19012KT 36/17 A2996 RMK A01 T03640171  RH  032%=      5-min Rain = 0
KNH1 191850Z 20011KT 36/17 A2996 RMK A01 T03630173  RH  033%=      5-min Rain = 0
KNH1 191851Z 20015KT 37/17 A2996 RMK A01 T03670174  RH  032%=      5-min Rain = 0
KNH1 191852Z 20015KT 37/17 A2996 RMK A01 T03670170  RH  031%=      5-min Rain = 0
KNH1 191853Z 20014G19KT 36/17 A2996 RMK A01 T03630168  RH  032%=      5-min Rain = 0
KNH1 191854Z 18011KT 36/17 A2996 RMK A01 T03600168  RH  032%=      5-min Rain = 0
KNH1 191855Z 18009KT 36/17 A2996 RMK A01 T03610167  RH  032%=      5-min Rain = 0
KNH1 191856Z 20012KT 36/17 A2996 RMK A01 T03610167  RH  032%=      5-min Rain = 0
KNH1 191857Z 22013KT 36/16 A2996 RMK A01 T03620164  RH  031%=      5-min Rain = 0
KNH1 191858Z 22012KT 36/17 A2996 RMK A01 T03610166  RH  031%=      5-min Rain = 0
KNH1 191859Z 19013KT 36/17 A2996 RMK A01 T03610165  RH  031%=      5-min Rain = 0
KNH1 191900Z 19013KT 36/17 A2996 RMK A01 T03610167  RH  032%=      5-min Rain = 0
KNH1 191901Z 19015KT 36/16 A2996 RMK A01 T03630164  RH  031%=      5-min Rain = 0
KNH1 191902Z 19012KT 36/16 A2996 RMK A01 T03640163  RH  030%=      5-min Rain = 0
KNH1 191903Z 19014KT 37/16 A2996 RMK A01 T03650162  RH  030%=      5-min Rain = 0
KNH1 191904Z 19013KT 36/16 A2996 RMK A01 T03640160  RH  030%=      5-min Rain = 0
KNH1 191905Z 20010KT 36/17 A2996 RMK A01 T03640166  RH  031%=      5-min Rain = 0
KNH1 191906Z 20010KT 36/17 A2996 RMK A01 T03640167  RH  031%=      5-min Rain = 0
KNH1 191907Z 18010KT 36/17 A2996 RMK A01 T03640167  RH  031%=      5-min Rain = 0
KNH1 191908Z 19015KT 37/17 A2996 RMK A01 T03660166  RH  031%=      5-min Rain = 0
KNH1 191909Z 19012KT 37/16 A2996 RMK A01 T03660164  RH  030%=      5-min Rain = 0
KNH1 191910Z 17012G17KT 37/17 A2996 RMK A01 T03680165  RH  030%=      5-min Rain = 0
KNH1 191911Z 18017KT 37/16 A2996 RMK A01 T03690160  RH  029%=      5-min Rain = 0
KNH1 191912Z 18013KT 37/16 A2996 RMK A01 T03690157  RH  029%=      5-min Rain = 0
KNH1 191913Z 17012KT 37/15 A2996 RMK A01 T03680154  RH  028%=      5-min Rain = 0
KNH1 191914Z 17008KT 37/16 A2995 RMK A01 T03660157  RH  029%=      5-min Rain = 0
KNH1 191915Z 18010G15KT 37/16 A2996 RMK A01 T03670162  RH  030%=      5-min Rain = 0
KNH1 191916Z 18013KT 37/16 A2996 RMK A01 T03700162  RH  029%=      5-min Rain = 0
KNH1 191917Z 20015KT 37/16 A2996 RMK A01 T03710163  RH  029%=      5-min Rain = 0
KNH1 191918Z 19012KT 37/16 A2996 RMK A01 T03690164  RH  030%=      5-min Rain = 0
KNH1 191919Z 19009KT 37/16 A2995 RMK A01 T03680164  RH  030%=      5-min Rain = 0
KNH1 191920Z 19014KT 37/17 A2995 RMK A01 T03680166  RH  030%=      5-min Rain = 0
KNH1 191921Z 21015KT 37/17 A2995 RMK A01 T03700167  RH  030%=      5-min Rain = 0
KNH1 191922Z 21015KT 37/16 A2995 RMK A01 T03720162  RH  029%=      5-min Rain = 0
KNH1 191923Z 21011KT 37/16 A2995 RMK A01 T03710162  RH  029%=      5-min Rain = 0
KNH1 191924Z 21015KT 37/16 A2995 RMK A01 T03730163  RH  029%=      5-min Rain = 0
KNH1 191925Z 21014KT 37/16 A2995 RMK A01 T03720161  RH  029%=      5-min Rain = 0
KNH1 191926Z 21013KT 37/16 A2995 RMK A01 T03710158  RH  028%=      5-min Rain = 0
KNH1 191927Z 21013KT 37/16 A2995 RMK A01 T03710159  RH  029%=      5-min Rain = 0
KNH1 191928Z 21014KT 37/16 A2995 RMK A01 T03700156  RH  028%=      5-min Rain = 0
KNH1 191929Z 21015KT 37/15 A2995 RMK A01 T03700151  RH  027%=      5-min Rain = 0
KNH1 191930Z 20013KT 37/15 A2995 RMK A01 T03700151  RH  027%=      5-min Rain = 0
KNH1 191931Z 19010KT 37/15 A2995 RMK A01 T03700153  RH  028%=      5-min Rain = 0
KNH1 191932Z 19012KT 37/16 A2995 RMK A01 T03720161  RH  029%=      5-min Rain = 0
KNH1 191933Z 19017KT 38/16 A2995 RMK A01 T03750159  RH  028%=      5-min Rain = 0
KNH1 191934Z 20015KT 37/15 A2995 RMK A01 T03740154  RH  027%=      5-min Rain = 0
KNH1 191935Z 20013KT 37/15 A2995 RMK A01 T03710153  RH  028%=      5-min Rain = 0
KNH1 191936Z 20011KT 37/16 A2995 RMK A01 T03730156  RH  028%=      5-min Rain = 0
KNH1 191937Z 19015G22KT 38/16 A2995 RMK A01 T03760162  RH  028%=      5-min Rain = 0
KNH1 191938Z 20014G19KT 38/16 A2995 RMK A01 T03770163  RH  028%=      5-min Rain = 0
KNH1 191939Z 20016KT 38/16 A2995 RMK A01 T03750160  RH  028%=      5-min Rain = 0
KNH1 191940Z 21015G21KT 37/16 A2995 RMK A01 T03720160  RH  029%=      5-min Rain = 0
KNH1 191941Z 20016KT 37/16 A2995 RMK A01 T03740163  RH  029%=      5-min Rain = 0
KNH1 191942Z 19016KT 38/16 A2995 RMK A01 T03770162  RH  028%=      5-min Rain = 0
KNH1 191943Z 18010G15KT 38/16 A2995 RMK A01 T03760158  RH  028%=      5-min Rain = 0
KNH1 191944Z 20015G20KT 38/16 A2995 RMK A01 T03770161  RH  028%=      5-min Rain = 0
KNH1 191945Z 21016KT 38/16 A2995 RMK A01 T03770161  RH  028%=      5-min Rain = 0
KNH1 191946Z 21016KT 38/15 A2995 RMK A01 T03770154  RH  027%=      5-min Rain = 0
KNH1 191947Z 21014KT 38/15 A2995 RMK A01 T03750154  RH  027%=      5-min Rain = 0
KNH1 191948Z 20014KT 37/15 A2994 RMK A01 T03730154  RH  027%=      5-min Rain = 0
KNH1 191949Z 19011KT 37/16 A2994 RMK A01 T03730155  RH  027%=      5-min Rain = 0
KNH1 191950Z 20012KT 38/15 A2994 RMK A01 T03750151  RH  027%=      5-min Rain = 0
KNH1 191951Z 19018KT 38/16 A2994 RMK A01 T03750158  RH  028%=      5-min Rain = 0
KNH1 191952Z 18017G22KT 38/16 A2994 RMK A01 T03760156  RH  027%=      5-min Rain = 0
KNH1 191953Z 18013KT 37/16 A2994 RMK A01 T03740157  RH  028%=      5-min Rain = 0
KNH1 191954Z 18015KT 37/16 A2994 RMK A01 T03740156  RH  028%=      5-min Rain = 0
KNH1 191955Z 20011KT 37/16 A2994 RMK A01 T03740158  RH  028%=      5-min Rain = 0
KNH1 191956Z 19016KT 38/16 A2994 RMK A01 T03770158  RH  028%=      5-min Rain = 0
KNH1 191957Z 20012KT 38/15 A2994 RMK A01 T03750153  RH  027%=      5-min Rain = 0
KNH1 191958Z 18013G20KT 37/16 A2994 RMK A01 T03740157  RH  028%=      5-min Rain = 0
KNH1 191959Z 18013G18KT 38/16 A2994 RMK A01 T03760155  RH  027%=      5-min Rain = 0
KNH1 192000Z 18015G20KT 38/15 A2994 RMK A01 T03770153  RH  027%=      5-min Rain = 0
KNH1 192001Z 18010G16KT 37/15 A2994 RMK A01 T03740151  RH  027%=      5-min Rain = 0
KNH1 192002Z 20014G20KT 38/16 A2994 RMK A01 T03770157  RH  027%=      5-min Rain = 0
KNH1 192003Z 20017KT 38/15 A2994 RMK A01 T03790154  RH  027%=      5-min Rain = 0
KNH1 192004Z 20017KT 38/15 A2994 RMK A01 T03770150  RH  026%=      5-min Rain = 0
KNH1 192005Z 20015KT 38/15 A2994 RMK A01 T03760145  RH  025%=      5-min Rain = 0
KNH1 192006Z 19012KT 38/15 A2994 RMK A01 T03750145  RH  026%=      5-min Rain = 0
KNH1 192007Z 19012KT 37/15 A2994 RMK A01 T03740146  RH  026%=      5-min Rain = 0
KNH1 192008Z 20012G17KT 37/15 A2994 RMK A01 T03720152  RH  027%=      5-min Rain = 0
KNH1 192009Z 18015KT 37/15 A2994 RMK A01 T03720151  RH  027%=      5-min Rain = 0
KNH1 192010Z 18014KT 37/15 A2994 RMK A01 T03720150  RH  027%=      5-min Rain = 0
KNH1 192011Z 17012KT 37/15 A2994 RMK A01 T03700148  RH  027%=      5-min Rain = 0
KNH1 192012Z 18010KT 37/15 A2994 RMK A01 T03690150  RH  027%=      5-min Rain = 0
KNH1 192013Z 19012KT 37/16 A2994 RMK A01 T03740156  RH  028%=      5-min Rain = 0
KNH1 192014Z 19013KT 38/16 A2994 RMK A01 T03780157  RH  027%=      5-min Rain = 0
KNH1 192015Z 18010KT 38/15 A2994 RMK A01 T03800153  RH  026%=      5-min Rain = 0
KNH1 192016Z 19010KT 38/15 A2994 RMK A01 T03800151  RH  026%=      5-min Rain = 0
KNH1 192017Z 20015G20KT 38/15 A2994 RMK A01 T03800150  RH  026%=      5-min Rain = 0
KNH1 192018Z 19013KT 38/15 A2994 RMK A01 T03790149  RH  026%=      5-min Rain = 0
KNH1 192019Z 21014KT 38/15 A2994 RMK A01 T03790149  RH  026%=      5-min Rain = 0
KNH1 192020Z 22011KT 38/15 A2994 RMK A01 T03790149  RH  026%=      5-min Rain = 0
KNH1 192021Z 20016G24KT 38/15 A2994 RMK A01 T03790150  RH  026%=      5-min Rain = 0
KNH1 192022Z 19018G23KT 38/15 A2994 RMK A01 T03770149  RH  026%=      5-min Rain = 0
KNH1 192023Z 19013KT 38/15 A2994 RMK A01 T03760152  RH  027%=      5-min Rain = 0
KNH1 192024Z 20012KT 38/15 A2994 RMK A01 T03800150  RH  026%=      5-min Rain = 0
KNH1 192025Z 19018G24KT 38/15 A2994 RMK A01 T03810149  RH  025%=      5-min Rain = 0
KNH1 192026Z 19014KT 38/14 A2994 RMK A01 T03790143  RH  025%=      5-min Rain = 0
KNH1 192027Z 20012KT 38/14 A2994 RMK A01 T03770144  RH  025%=      5-min Rain = 0
KNH1 192028Z 20012KT 38/15 A2994 RMK A01 T03760145  RH  026%=      5-min Rain = 0
KNH1 192029Z 18014G19KT 38/15 A2994 RMK A01 T03760148  RH  026%=      5-min Rain = 0
KNH1 192030Z 17014KT 38/14 A2994 RMK A01 T03770142  RH  025%=      5-min Rain = 0
KNH1 192031Z 17014KT 38/14 A2993 RMK A01 T03770142  RH  025%=      5-min Rain = 0
KNH1 192032Z 16016G22KT 38/14 A2993 RMK A01 T03760143  RH  025%=      5-min Rain = 0
KNH1 192033Z 17018G25KT 38/14 A2993 RMK A01 T03770141  RH  025%=      5-min Rain = 0
KNH1 192034Z 17014KT 37/14 A2994 RMK A01 T03740142  RH  025%=      5-min Rain = 0
KNH1 192035Z 18013KT 37/14 A2994 RMK A01 T03740144  RH  026%=      5-min Rain = 0
KNH1 192036Z 20010KT 37/15 A2994 RMK A01 T03740147  RH  026%=      5-min Rain = 0
KNH1 192037Z 20009G16KT 37/15 A2994 RMK A01 T03740147  RH  026%=      5-min Rain = 0
KNH1 192038Z 21014KT 38/15 A2993 RMK A01 T03750148  RH  026%=      5-min Rain = 0
KNH1 192039Z 18011KT 38/15 A2994 RMK A01 T03760147  RH  026%=      5-min Rain = 0
KNH1 192040Z 18014KT 38/14 A2993 RMK A01 T03770141  RH  025%=      5-min Rain = 0
KNH1 192041Z 19015KT 38/14 A2993 RMK A01 T03770140  RH  024%=      5-min Rain = 0
KNH1 192042Z 19014G19KT 38/14 A2994 RMK A01 T03760143  RH  025%=      5-min Rain = 0
KNH1 192043Z 19011KT 37/14 A2993 RMK A01 T03740143  RH  025%=      5-min Rain = 0
KNH1 192044Z 19011KT 37/14 A2993 RMK A01 T03720142  RH  025%=      5-min Rain = 0
KNH1 192045Z 18014G19KT 37/15 A2993 RMK A01 T03730145  RH  026%=      5-min Rain = 0
KNH1 192046Z 17014G19KT 38/14 A2993 RMK A01 T03770142  RH  025%=      5-min Rain = 0
KNH1 192047Z 18009G14KT 37/14 A2993 RMK A01 T03740143  RH  025%=      5-min Rain = 0
KNH1 192048Z 19012KT 38/15 A2993 RMK A01 T03770148  RH  026%=      5-min Rain = 0
KNH1 192049Z 20009KT 38/14 A2993 RMK A01 T03790142  RH  025%=      5-min Rain = 0
KNH1 192050Z 18012KT 38/14 A2993 RMK A01 T03770144  RH  025%=      5-min Rain = 0
KNH1 192051Z 17011KT 37/15 A2993 RMK A01 T03740146  RH  026%=      5-min Rain = 0
KNH1 192052Z 17010KT 37/15 A2993 RMK A01 T03710145  RH  026%=      5-min Rain = 0
KNH1 192053Z 18014KT 37/15 A2993 RMK A01 T03680145  RH  027%=      5-min Rain = 0
KNH1 192054Z 19011KT 37/15 A2993 RMK A01 T03680149  RH  027%=      5-min Rain = 0
KNH1 192055Z 18015KT 37/15 A2993 RMK A01 T03710151  RH  027%=      5-min Rain = 0
KNH1 192056Z 18013G18KT 37/15 A2993 RMK A01 T03710147  RH  027%=      5-min Rain = 0
KNH1 192057Z 19015G20KT 37/15 A2993 RMK A01 T03720149  RH  027%=      5-min Rain = 0
KNH1 192058Z 20015KT 37/15 A2993 RMK A01 T03740149  RH  026%=      5-min Rain = 0
KNH1 192059Z 19009KT 38/15 A2993 RMK A01 T03750147  RH  026%=      5-min Rain = 0
KNH1 192100Z 20011KT 37/15 A2993 RMK A01 T03740148  RH  026%=      5-min Rain = 0
KNH1 192101Z 23011KT 38/15 A2993 RMK A01 T03750150  RH  026%=      5-min Rain = 0
KNH1 192102Z 23009KT 38/14 A2993 RMK A01 T03750144  RH  025%=      5-min Rain = 0
KNH1 192103Z 20014KT 38/15 A2993 RMK A01 T03750147  RH  026%=      5-min Rain = 0
KNH1 192104Z 20009KT 37/15 A2993 RMK A01 T03740146  RH  026%=      5-min Rain = 0
KNH1 192105Z 20007G20KT 37/14 A2993 RMK A01 T03740144  RH  025%=      5-min Rain = 0
KNH1 192106Z 18012G19KT 38/15 A2993 RMK A01 T03750145  RH  026%=      5-min Rain = 0
KNH1 192107Z 16011KT 38/14 A2993 RMK A01 T03780144  RH  025%=      5-min Rain = 0
KNH1 192108Z 18013KT 38/14 A2993 RMK A01 T03790144  RH  025%=      5-min Rain = 0
KNH1 192109Z 18010G15KT 38/15 A2993 RMK A01 T03770145  RH  025%=      5-min Rain = 0
KNH1 192110Z 19013KT 38/15 A2993 RMK A01 T03770145  RH  025%=      5-min Rain = 0
KNH1 192111Z 18013KT 38/14 A2993 RMK A01 T03760144  RH  025%=      5-min Rain = 0
KNH1 192112Z 18009KT 38/14 A2993 RMK A01 T03770139  RH  024%=      5-min Rain = 0
KNH1 192113Z 21012G17KT 38/15 A2993 RMK A01 T03760145  RH  025%=      5-min Rain = 0
KNH1 192114Z 22015KT 38/15 A2993 RMK A01 T03760145  RH  025%=      5-min Rain = 0
KNH1 192115Z 21015KT 38/15 A2993 RMK A01 T03780148  RH  026%=      5-min Rain = 0
KNH1 192116Z 21012KT 38/15 A2993 RMK A01 T03790147  RH  025%=      5-min Rain = 0
KNH1 192117Z 20013G19KT 38/15 A2993 RMK A01 T03780147  RH  025%=      5-min Rain = 0
KNH1 192118Z 18012G17KT 38/15 A2993 RMK A01 T03750148  RH  026%=      5-min Rain = 0
KNH1 192119Z 18012KT 38/15 A2993 RMK A01 T03770148  RH  026%=      5-min Rain = 0
KNH1 192120Z 19012G18KT 38/15 A2992 RMK A01 T03790147  RH  025%=      5-min Rain = 0
KNH1 192121Z 20014G19KT 38/15 A2993 RMK A01 T03790145  RH  025%=      5-min Rain = 0
KNH1 192122Z 20010KT 38/15 A2992 RMK A01 T03780146  RH  025%=      5-min Rain = 0
KNH1 192123Z 20012G17KT 38/15 A2993 RMK A01 T03800146  RH  025%=      5-min Rain = 0
KNH1 192124Z 20012KT 38/14 A2992 RMK A01 T03800142  RH  024%=      5-min Rain = 0
KNH1 192125Z 20017G22KT 38/14 A2992 RMK A01 T03790143  RH  025%=      5-min Rain = 0
KNH1 192126Z 18014KT 38/14 A2992 RMK A01 T03810143  RH  024%=      5-min Rain = 0
KNH1 192127Z 18016KT 38/14 A2992 RMK A01 T03810140  RH  024%=      5-min Rain = 0
KNH1 192128Z 18014KT 38/14 A2992 RMK A01 T03800141  RH  024%=      5-min Rain = 0
KNH1 192129Z 19015KT 38/14 A2992 RMK A01 T03790141  RH  024%=      5-min Rain = 0
KNH1 192130Z 19015KT 38/14 A2992 RMK A01 T03790143  RH  025%=      5-min Rain = 0
KNH1 192131Z 18009KT 38/14 A2992 RMK A01 T03780139  RH  024%=      5-min Rain = 0
KNH1 192132Z 21009KT 38/14 A2992 RMK A01 T03770140  RH  024%=      5-min Rain = 0
KNH1 192133Z 20010KT 38/15 A2992 RMK A01 T03770145  RH  025%=      5-min Rain = 0
KNH1 192134Z 20011G16KT 38/15 A2992 RMK A01 T03790148  RH  025%=      5-min Rain = 0
KNH1 192135Z 18008KT 38/15 A2992 RMK A01 T03820148  RH  025%=      5-min Rain = 0
KNH1 192136Z 17008KT 38/15 A2992 RMK A01 T03840146  RH  025%=      5-min Rain = 0
KNH1 192137Z 19014KT 39/15 A2992 RMK A01 T03860148  RH  025%=      5-min Rain = 0
KNH1 192138Z 18012G19KT 38/15 A2992 RMK A01 T03840145  RH  024%=      5-min Rain = 0
KNH1 192139Z 19016KT 38/14 A2992 RMK A01 T03830141  RH  024%=      5-min Rain = 0
KNH1 192140Z 19013KT 38/14 A2992 RMK A01 T03780140  RH  024%=      5-min Rain = 0
KNH1 192141Z 19013KT 38/15 A2992 RMK A01 T03790145  RH  025%=      5-min Rain = 0
KNH1 192142Z 20014KT 38/15 A2992 RMK A01 T03830145  RH  024%=      5-min Rain = 0
KNH1 192143Z 20011KT 38/15 A2992 RMK A01 T03840147  RH  025%=      5-min Rain = 0
KNH1 192144Z 20013KT 39/15 A2992 RMK A01 T03850146  RH  024%=      5-min Rain = 0
KNH1 192145Z 19012KT 38/14 A2992 RMK A01 T03820142  RH  024%=      5-min Rain = 0
KNH1 192146Z 20009KT 38/14 A2992 RMK A01 T03770140  RH  024%=      5-min Rain = 0
KNH1 192147Z 18014G21KT 37/14 A2992 RMK A01 T03720139  RH  025%=      5-min Rain = 0
KNH1 192148Z 19017KT 37/14 A2992 RMK A01 T03700139  RH  025%=      5-min Rain = 0
KNH1 192149Z 20012KT 37/14 A2992 RMK A01 T03680139  RH  026%=      5-min Rain = 0
KNH1 192150Z 20013KT 37/14 A2992 RMK A01 T03650139  RH  026%=      5-min Rain = 0
KNH1 192151Z 18011KT 36/14 A2992 RMK A01 T03640139  RH  026%=      5-min Rain = 0
KNH1 192152Z 17011KT 37/14 A2992 RMK A01 T03650139  RH  026%=      5-min Rain = 0
KNH1 192153Z 18011KT 37/14 A2992 RMK A01 T03660139  RH  026%=      5-min Rain = 0
KNH1 192154Z 19011KT 37/14 A2992 RMK A01 T03690143  RH  026%=      5-min Rain = 0
KNH1 192155Z 18009KT 37/14 A2992 RMK A01 T03730143  RH  026%=      5-min Rain = 0
KNH1 192156Z 20009KT 38/15 A2992 RMK A01 T03750146  RH  026%=      5-min Rain = 0
KNH1 192157Z 19011G16KT 38/15 A2992 RMK A01 T03780148  RH  026%=      5-min Rain = 0
KNH1 192158Z 19014KT 38/15 A2992 RMK A01 T03790149  RH  026%=      5-min Rain = 0
KNH1 192159Z 18014G19KT 38/15 A2992 RMK A01 T03800149  RH  026%=      5-min Rain = 0
KNH1 192200Z 18013KT 38/14 A2992 RMK A01 T03780143  RH  025%=      5-min Rain = 0
KNH1 192201Z 18011G16KT 37/14 A2992 RMK A01 T03730139  RH  025%=      5-min Rain = 0
KNH1 192202Z 20013KT 37/14 A2992 RMK A01 T03700143  RH  026%=      5-min Rain = 0
KNH1 192203Z 20014KT 37/14 A2992 RMK A01 T03710144  RH  026%=      5-min Rain = 0
KNH1 192204Z 17013KT 37/14 A2992 RMK A01 T03730144  RH  026%=      5-min Rain = 0
KNH1 192205Z 18009KT 38/14 A2992 RMK A01 T03760141  RH  025%=      5-min Rain = 0
KNH1 192206Z 17009KT 38/14 A2992 RMK A01 T03770142  RH  025%=      5-min Rain = 0
KNH1 192207Z 17008KT 38/14 A2992 RMK A01 T03790142  RH  025%=      5-min Rain = 0
KNH1 192208Z 20011KT 38/15 A2992 RMK A01 T03790145  RH  025%=      5-min Rain = 0
KNH1 192209Z 22011KT 38/14 A2992 RMK A01 T03790144  RH  025%=      5-min Rain = 0
KNH1 192210Z 20013KT 38/14 A2992 RMK A01 T03790142  RH  025%=      5-min Rain = 0
KNH1 192211Z 20012KT 38/15 A2992 RMK A01 T03790145  RH  025%=      5-min Rain = 0
KNH1 192212Z 19012KT 38/14 A2992 RMK A01 T03810144  RH  025%=      5-min Rain = 0
KNH1 192213Z 18010KT 38/14 A2992 RMK A01 T03820141  RH  024%=      5-min Rain = 0
KNH1 192214Z 18009KT 38/14 A2992 RMK A01 T03810140  RH  024%=      5-min Rain = 0
KNH1 192215Z 20007KT 38/14 A2992 RMK A01 T03800140  RH  024%=      5-min Rain = 0
KNH1 192216Z 20013G18KT 38/15 A2992 RMK A01 T03800145  RH  025%=      5-min Rain = 0
KNH1 192217Z 19014G19KT 38/14 A2992 RMK A01 T03810142  RH  024%=      5-min Rain = 0
KNH1 192218Z 21010KT 38/14 A2992 RMK A01 T03800141  RH  024%=      5-min Rain = 0
KNH1 192219Z 19011G16KT 38/14 A2992 RMK A01 T03770139  RH  024%=      5-min Rain = 0
KNH1 192220Z 19014G19KT 38/14 A2992 RMK A01 T03760140  RH  025%=      5-min Rain = 0
KNH1 192221Z 19012KT 38/14 A2992 RMK A01 T03750142  RH  025%=      5-min Rain = 0
KNH1 192222Z 18013KT 38/14 A2992 RMK A01 T03760143  RH  025%=      5-min Rain = 0
KNH1 192223Z 17011KT 38/14 A2992 RMK A01 T03760140  RH  025%=      5-min Rain = 0
KNH1 192224Z 17014KT 37/14 A2992 RMK A01 T03740138  RH  025%=      5-min Rain = 0
KNH1 192225Z 19012G17KT 37/14 A2991 RMK A01 T03710139  RH  025%=      5-min Rain = 0
KNH1 192226Z 19015KT 37/14 A2991 RMK A01 T03710141  RH  025%=      5-min Rain = 0
KNH1 192227Z 19015KT 37/14 A2991 RMK A01 T03720142  RH  026%=      5-min Rain = 0
KNH1 192228Z 18011KT 37/14 A2991 RMK A01 T03730141  RH  025%=      5-min Rain = 0
KNH1 192229Z 19013KT 37/14 A2991 RMK A01 T03730142  RH  025%=      5-min Rain = 0
KNH1 192230Z 19014KT 38/14 A2991 RMK A01 T03750144  RH  025%=      5-min Rain = 0
KNH1 192231Z 18010KT 38/14 A2991 RMK A01 T03760142  RH  025%=      5-min Rain = 0
KNH1 192232Z 19008KT 38/14 A2991 RMK A01 T03760140  RH  025%=      5-min Rain = 0
KNH1 192233Z 19006KT 38/14 A2991 RMK A01 T03750143  RH  025%=      5-min Rain = 0
KNH1 192234Z 20007KT 38/14 A2991 RMK A01 T03760144  RH  025%=      5-min Rain = 0
KNH1 192235Z 17008KT 38/15 A2991 RMK A01 T03760146  RH  026%=      5-min Rain = 0
KNH1 192236Z 16010KT 38/14 A2991 RMK A01 T03780143  RH  025%=      5-min Rain = 0
KNH1 192237Z 16010KT 38/14 A2991 RMK A01 T03790141  RH  024%=      5-min Rain = 0
KNH1 192238Z 17012G17KT 38/14 A2991 RMK A01 T03780141  RH  024%=      5-min Rain = 0
KNH1 192239Z 19012G17KT 38/14 A2991 RMK A01 T03780144  RH  025%=      5-min Rain = 0
KNH1 192240Z 19017KT 38/14 A2991 RMK A01 T03790144  RH  025%=      5-min Rain = 0
KNH1 192241Z 20015KT 38/14 A2991 RMK A01 T03770140  RH  025%=      5-min Rain = 0
KNH1 192242Z 21012KT 38/14 A2991 RMK A01 T03750143  RH  025%=      5-min Rain = 0
KNH1 192243Z 21011KT 38/14 A2991 RMK A01 T03750144  RH  025%=      5-min Rain = 0
KNH1 192244Z 19013KT 38/14 A2991 RMK A01 T03760143  RH  025%=      5-min Rain = 0
KNH1 192245Z 20015G20KT 38/15 A2991 RMK A01 T03760146  RH  026%=      5-min Rain = 0
KNH1 192246Z 19016KT 38/15 A2991 RMK A01 T03750146  RH  026%=      5-min Rain = 0
KNH1 192247Z 19017KT 37/15 A2991 RMK A01 T03740146  RH  026%=      5-min Rain = 0
KNH1 192248Z 19018KT 37/15 A2991 RMK A01 T03720145  RH  026%=      5-min Rain = 0
KNH1 192249Z 19015KT 37/15 A2991 RMK A01 T03720145  RH  026%=      5-min Rain = 0
KNH1 192250Z 20015KT 37/15 A2991 RMK A01 T03740146  RH  026%=      5-min Rain = 0
KNH1 192251Z 19011KT 37/15 A2991 RMK A01 T03740146  RH  026%=      5-min Rain = 0
KNH1 192252Z 19013G18KT 38/15 A2991 RMK A01 T03750146  RH  026%=      5-min Rain = 0
KNH1 192253Z 19014KT 38/14 A2991 RMK A01 T03760143  RH  025%=      5-min Rain = 0
KNH1 192254Z 19015KT 38/14 A2991 RMK A01 T03750141  RH  025%=      5-min Rain = 0
KNH1 192255Z 18010G16KT 37/14 A2991 RMK A01 T03740141  RH  025%=      5-min Rain = 0
KNH1 192256Z 18014G19KT 38/14 A2991 RMK A01 T03760141  RH  025%=      5-min Rain = 0
KNH1 192257Z 18012KT 38/14 A2991 RMK A01 T03760138  RH  024%=      5-min Rain = 0
KNH1 192258Z 18013KT 37/14 A2991 RMK A01 T03740141  RH  025%=      5-min Rain = 0
KNH1 192259Z 17011KT 37/14 A2991 RMK A01 T03730141  RH  025%=      5-min Rain = 0
KNH1 192300Z 16008KT 37/14 A2991 RMK A01 T03730138  RH  025%=      5-min Rain = 0
KNH1 192301Z 17010KT 38/14 A2991 RMK A01 T03750139  RH  025%=      5-min Rain = 0
KNH1 192302Z 17012KT 38/14 A2991 RMK A01 T03760138  RH  024%=      5-min Rain = 0
KNH1 192303Z 17012KT 37/14 A2991 RMK A01 T03740138  RH  025%=      5-min Rain = 0
KNH1 192304Z 18014G19KT 37/14 A2991 RMK A01 T03740138  RH  025%=      5-min Rain = 0
KNH1 192305Z 17010KT 37/14 A299 RMK A01 T03730139  RH  025%=      5-min Rain = 0
KNH1 192306Z 20013G18KT 37/14 A2991 RMK A01 T03740143  RH  025%=      5-min Rain = 0
KNH1 192307Z 21015KT 38/14 A299 RMK A01 T03760140  RH  025%=      5-min Rain = 0
KNH1 192308Z 20013KT 38/14 A2991 RMK A01 T03750142  RH  025%=      5-min Rain = 0
KNH1 192309Z 19015KT 38/14 A2991 RMK A01 T03760141  RH  025%=      5-min Rain = 0
KNH1 192310Z 19013KT 38/14 A2991 RMK A01 T03750138  RH  024%=      5-min Rain = 0
KNH1 192311Z 19017KT 37/14 A299 RMK A01 T03740141  RH  025%=      5-min Rain = 0
KNH1 192312Z 19013G20KT 37/15 A299 RMK A01 T03740145  RH  026%=      5-min Rain = 0
KNH1 192313Z 19016KT 37/14 A299 RMK A01 T03740144  RH  026%=      5-min Rain = 0
KNH1 192314Z 19017KT 37/14 A299 RMK A01 T03740144  RH  025%=      5-min Rain = 0
KNH1 192315Z 19015KT 37/14 A299 RMK A01 T03740143  RH  025%=      5-min Rain = 0
KNH1 192316Z 18015KT 37/14 A299 RMK A01 T03740144  RH  025%=      5-min Rain = 0
KNH1 192317Z 19014KT 38/14 A299 RMK A01 T03750141  RH  025%=      5-min Rain = 0
KNH1 192318Z 19013KT 37/14 A299 RMK A01 T03740142  RH  025%=      5-min Rain = 0
KNH1 192319Z 20017KT 37/14 A299 RMK A01 T03730142  RH  025%=      5-min Rain = 0
KNH1 192320Z 20016KT 37/14 A299 RMK A01 T03720139  RH  025%=      5-min Rain = 0
KNH1 192321Z 20015KT 37/14 A299 RMK A01 T03700139  RH  025%=      5-min Rain = 0
KNH1 192322Z 19014KT 37/14 A299 RMK A01 T03710140  RH  025%=      5-min Rain = 0
KNH1 192323Z 18017KT 37/14 A299 RMK A01 T03720137  RH  025%=      5-min Rain = 0
KNH1 192324Z 19014KT 37/14 A299 RMK A01 T03720138  RH  025%=      5-min Rain = 0
KNH1 192325Z 18011KT 37/14 A299 RMK A01 T03720138  RH  025%=      5-min Rain = 0
KNH1 192326Z 20012KT 37/14 A299 RMK A01 T03720140  RH  025%=      5-min Rain = 0
KNH1 192327Z 19010G15KT 37/14 A299 RMK A01 T03720140  RH  025%=      5-min Rain = 0
KNH1 192328Z 18013KT 37/14 A299 RMK A01 T03720142  RH  025%=      5-min Rain = 0
KNH1 192329Z 19013KT 37/14 A299 RMK A01 T03730143  RH  026%=      5-min Rain = 0
KNH1 192330Z 19015KT 37/14 A299 RMK A01 T03740141  RH  025%=      5-min Rain = 0
KNH1 192331Z 19015KT 37/14 A299 RMK A01 T03720140  RH  025%=      5-min Rain = 0
KNH1 192332Z 19011KT 37/14 A299 RMK A01 T03710140  RH  025%=      5-min Rain = 0
KNH1 192333Z 19010KT 37/14 A299 RMK A01 T03700139  RH  025%=      5-min Rain = 0
KNH1 192334Z 18011KT 37/14 A299 RMK A01 T03700141  RH  026%=      5-min Rain = 0
KNH1 192335Z 19010KT 37/14 A299 RMK A01 T03700139  RH  025%=      5-min Rain = 0
KNH1 192336Z 18011G17KT 37/14 A299 RMK A01 T03720142  RH  026%=      5-min Rain = 0
KNH1 192337Z 18012G17KT 37/14 A299 RMK A01 T03740140  RH  025%=      5-min Rain = 0
KNH1 192338Z 18016KT 38/14 A299 RMK A01 T03750138  RH  024%=      5-min Rain = 0
KNH1 192339Z 19015KT 37/14 A299 RMK A01 T03730137  RH  025%=      5-min Rain = 0
KNH1 192340Z 19014G19KT 37/14 A299 RMK A01 T03710138  RH  025%=      5-min Rain = 0
KNH1 192341Z 19016KT 37/14 A299 RMK A01 T03710140  RH  025%=      5-min Rain = 0
KNH1 192342Z 18017KT 37/14 A299 RMK A01 T03710140  RH  025%=      5-min Rain = 0
KNH1 192343Z 19013KT 37/14 A299 RMK A01 T03720141  RH  025%=      5-min Rain = 0
KNH1 192344Z 20015KT 37/14 A299 RMK A01 T03720139  RH  025%=      5-min Rain = 0
KNH1 192345Z 18012KT 37/14 A299 RMK A01 T03720140  RH  025%=      5-min Rain = 0
KNH1 192346Z 17012KT 37/14 A299 RMK A01 T03710138  RH  025%=      5-min Rain = 0
KNH1 192347Z 17011G16KT 37/14 A299 RMK A01 T03710137  RH  025%=      5-min Rain = 0
KNH1 192348Z 18010KT 37/14 A299 RMK A01 T03710137  RH  025%=      5-min Rain = 0
KNH1 192349Z 19012KT 37/14 A299 RMK A01 T03710139  RH  025%=      5-min Rain = 0
KNH1 192350Z 18011KT 37/14 A299 RMK A01 T03710138  RH  025%=      5-min Rain = 0
KNH1 192351Z 18010KT 37/14 A299 RMK A01 T03700137  RH  025%=      5-min Rain = 0
KNH1 192352Z 19016KT 37/14 A299 RMK A01 T03700138  RH  025%=      5-min Rain = 0
KNH1 192353Z 18015KT 37/14 A299 RMK A01 T03700139  RH  025%=      5-min Rain = 0
KNH1 192354Z 18015KT 37/14 A299 RMK A01 T03710137  RH  025%=      5-min Rain = 0
KNH1 192355Z 19012G18KT 37/14 A299 RMK A01 T03700138  RH  025%=      5-min Rain = 0
KNH1 192356Z 19016KT 37/14 A299 RMK A01 T03700138  RH  025%=      5-min Rain = 0
KNH1 192357Z 20017KT 37/14 A299 RMK A01 T03680137  RH  025%=      5-min Rain = 0
KNH1 192358Z 21013KT 37/14 A299 RMK A01 T03670138  RH  026%=      5-min Rain = 0
KNH1 192359Z 19014KT 37/14 A299 RMK A01 T03670140  RH  026%=      5-min Rain = 0
KNH1 200000Z 19014KT 37/14 A299 RMK A01 T03670139  RH  026%=      5-min Rain = 0
KNH1 200001Z 19015KT 37/14 A299 RMK A01 T03670139  RH  026%=      5-min Rain = 0
KNH1 200002Z 19013KT 37/14 A299 RMK A01 T03670139  RH  026%=      5-min Rain = 0
KNH1 200003Z 19014KT 37/14 A299 RMK A01 T03670140  RH  026%=      5-min Rain = 0
KNH1 200004Z 19012KT 37/14 A299 RMK A01 T03670140  RH  026%=      5-min Rain = 0
KNH1 200005Z 18012KT 37/14 A299 RMK A01 T03670143  RH  026%=      5-min Rain = 0
KNH1 200006Z 18010KT 37/14 A299 RMK A01 T03680142  RH  026%=      5-min Rain = 0
KNH1 200007Z 17012KT 37/14 A299 RMK A01 T03680140  RH  026%=      5-min Rain = 0
KNH1 200008Z 17012KT 37/14 A299 RMK A01 T03680140  RH  026%=      5-min Rain = 0
KNH1 200009Z 17013KT 37/14 A299 RMK A01 T03680139  RH  026%=      5-min Rain = 0
KNH1 200010Z 16011G16KT 37/14 A299 RMK A01 T03680140  RH  026%=      5-min Rain = 0
KNH1 200011Z 16013G18KT 37/14 A299 RMK A01 T03670140  RH  026%=      5-min Rain = 0
KNH1 200012Z 17013G19KT 37/14 A299 RMK A01 T03670139  RH  026%=      5-min Rain = 0
KNH1 200013Z 17013KT 37/14 A299 RMK A01 T03660140  RH  026%=      5-min Rain = 0
KNH1 200014Z 17013KT 37/14 A299 RMK A01 T03670141  RH  026%=      5-min Rain = 0
KNH1 200015Z 16011G17KT 37/14 A299 RMK A01 T03670140  RH  026%=      5-min Rain = 0
KNH1 200016Z 15011G16KT 37/14 A299 RMK A01 T03670140  RH  026%=      5-min Rain = 0
KNH1 200017Z 16013KT 37/14 A299 RMK A01 T03670139  RH  026%=      5-min Rain = 0
KNH1 200018Z 17012KT 37/14 A299 RMK A01 T03660139  RH  026%=      5-min Rain = 0
KNH1 200019Z 17011KT 37/14 A299 RMK A01 T03660140  RH  026%=      5-min Rain = 0
KNH1 200020Z 17013KT 37/14 A299 RMK A01 T03660140  RH  026%=      5-min Rain = 0
KNH1 200021Z 17012G17KT 37/14 A299 RMK A01 T03650139  RH  026%=      5-min Rain = 0
KNH1 200022Z 17011KT 37/14 A299 RMK A01 T03650139  RH  026%=      5-min Rain = 0
KNH1 200023Z 18013KT 37/14 A299 RMK A01 T03650140  RH  026%=      5-min Rain = 0
KNH1 200024Z 18013KT 37/14 A299 RMK A01 T03660141  RH  026%=      5-min Rain = 0
KNH1 200025Z 17014KT 37/14 A299 RMK A01 T03650138  RH  026%=      5-min Rain = 0
KNH1 200026Z 17013KT 37/14 A299 RMK A01 T03650135  RH  025%=      5-min Rain = 0
KNH1 200027Z 17010KT 37/14 A299 RMK A01 T03650136  RH  025%=      5-min Rain = 0
KNH1 200028Z 17014KT 36/14 A299 RMK A01 T03640136  RH  026%=      5-min Rain = 0
KNH1 200029Z 17011KT 36/14 A299 RMK A01 T03640137  RH  026%=      5-min Rain = 0
KNH1 200030Z 17010KT 37/14 A299 RMK A01 T03650138  RH  026%=      5-min Rain = 0
KNH1 200031Z 17010KT 36/14 A299 RMK A01 T03640138  RH  026%=      5-min Rain = 0
KNH1 200032Z 17007G12KT 36/14 A299 RMK A01 T03640140  RH  026%=      5-min Rain = 0
KNH1 200033Z 17011KT 37/14 A299 RMK A01 T03650140  RH  026%=      5-min Rain = 0
KNH1 200034Z 17012KT 36/14 A299 RMK A01 T03640139  RH  026%=      5-min Rain = 0
KNH1 200035Z 17011G16KT 36/14 A299 RMK A01 T03640139  RH  026%=      5-min Rain = 0
KNH1 200036Z 17011KT 36/14 A299 RMK A01 T03640138  RH  026%=      5-min Rain = 0
KNH1 200037Z 18011KT 36/14 A299 RMK A01 T03630138  RH  026%=      5-min Rain = 0
KNH1 200038Z 18010G15KT 36/14 A299 RMK A01 T03630140  RH  026%=      5-min Rain = 0
KNH1 200039Z 18012KT 36/14 A299 RMK A01 T03630142  RH  027%=      5-min Rain = 0
KNH1 200040Z 19009KT 36/14 A299 RMK A01 T03630141  RH  027%=      5-min Rain = 0
KNH1 200041Z 18010KT 36/14 A299 RMK A01 T03620142  RH  027%=      5-min Rain = 0
KNH1 200042Z 18009G14KT 36/14 A299 RMK A01 T03620140  RH  027%=      5-min Rain = 0
KNH1 200043Z 17012G17KT 36/14 A299 RMK A01 T03620138  RH  026%=      5-min Rain = 0
KNH1 200044Z 19016KT 36/14 A299 RMK A01 T03620138  RH  026%=      5-min Rain = 0
KNH1 200045Z 19012KT 36/14 A2991 RMK A01 T03610139  RH  027%=      5-min Rain = 0
KNH1 200046Z 18013KT 36/14 A2991 RMK A01 T03610139  RH  027%=      5-min Rain = 0
KNH1 200047Z 18013KT 36/14 A2991 RMK A01 T03610138  RH  026%=      5-min Rain = 0
KNH1 200048Z 19013KT 36/14 A2991 RMK A01 T03600139  RH  027%=      5-min Rain = 0
KNH1 200049Z 18010KT 36/14 A2991 RMK A01 T03600140  RH  027%=      5-min Rain = 0
KNH1 200050Z 19013KT 36/14 A2991 RMK A01 T03600140  RH  027%=      5-min Rain = 0
KNH1 200051Z 19012KT 36/14 A2991 RMK A01 T03590140  RH  027%=      5-min Rain = 0
KNH1 200052Z 18013KT 36/14 A2991 RMK A01 T03590140  RH  027%=      5-min Rain = 0
KNH1 200053Z 18012KT 36/14 A2991 RMK A01 T03590139  RH  027%=      5-min Rain = 0
KNH1 200054Z 18010KT 36/14 A2991 RMK A01 T03590139  RH  027%=      5-min Rain = 0
KNH1 200055Z 18010KT 36/14 A2991 RMK A01 T03590139  RH  027%=      5-min Rain = 0
KNH1 200056Z 18008KT 36/14 A2991 RMK A01 T03590140  RH  027%=      5-min Rain = 0
KNH1 200057Z 18010KT 36/14 A2991 RMK A01 T03590141  RH  027%=      5-min Rain = 0
KNH1 200058Z 18013KT 36/14 A2991 RMK A01 T03590139  RH  027%=      5-min Rain = 0
KNH1 200059Z 18011KT 36/14 A2991 RMK A01 T03580139  RH  027%=      5-min Rain = 0
KNH1 200100Z 18012KT 36/14 A2991 RMK A01 T03570139  RH  027%=      5-min Rain = 0
KNH1 200101Z 18010KT 36/14 A2991 RMK A01 T03580140  RH  027%=      5-min Rain = 0
KNH1 200102Z 17011KT 36/14 A2991 RMK A01 T03570138  RH  027%=      5-min Rain = 0
KNH1 200103Z 18012KT 36/14 A2991 RMK A01 T03580139  RH  027%=      5-min Rain = 0
KNH1 200104Z 18010KT 36/14 A2991 RMK A01 T03580139  RH  027%=      5-min Rain = 0
KNH1 200105Z 18011KT 36/14 A2991 RMK A01 T03570139  RH  027%=      5-min Rain = 0
KNH1 200106Z 18012KT 36/14 A2991 RMK A01 T03570138  RH  027%=      5-min Rain = 0
KNH1 200107Z 17009KT 36/14 A2991 RMK A01 T03570138  RH  027%=      5-min Rain = 0
KNH1 200108Z 17011KT 36/14 A2991 RMK A01 T03570139  RH  027%=      5-min Rain = 0
KNH1 200109Z 17010KT 36/14 A2991 RMK A01 T03560139  RH  027%=      5-min Rain = 0
KNH1 200110Z 17009KT 36/14 A2991 RMK A01 T03560139  RH  027%=      5-min Rain = 0
KNH1 200111Z 17009KT 36/14 A2991 RMK A01 T03550139  RH  027%=      5-min Rain = 0
KNH1 200112Z 17013KT 36/14 A2991 RMK A01 T03550139  RH  027%=      5-min Rain = 0
KNH1 200113Z 17009G14KT 36/14 A2991 RMK A01 T03550140  RH  028%=      5-min Rain = 0
KNH1 200114Z 17010KT 36/14 A2991 RMK A01 T03550140  RH  028%=      5-min Rain = 0
KNH1 200115Z 17010KT 36/14 A2991 RMK A01 T03550141  RH  028%=      5-min Rain = 0
KNH1 200116Z 17010KT 35/14 A2991 RMK A01 T03540142  RH  028%=      5-min Rain = 0
KNH1 200117Z 17010G16KT 35/14 A2991 RMK A01 T03540142  RH  028%=      5-min Rain = 0
KNH1 200118Z 17012KT 35/14 A2991 RMK A01 T03530142  RH  028%=      5-min Rain = 0
KNH1 200119Z 17011G17KT 35/14 A2991 RMK A01 T03530141  RH  028%=      5-min Rain = 0
KNH1 200120Z 17011KT 35/14 A2991 RMK A01 T03520141  RH  028%=      5-min Rain = 0
KNH1 200121Z 16014KT 35/14 A2991 RMK A01 T03510141  RH  028%=      5-min Rain = 0
KNH1 200122Z 16013KT 35/14 A2991 RMK A01 T03510140  RH  028%=      5-min Rain = 0
KNH1 200123Z 16010G16KT 35/14 A2991 RMK A01 T03510140  RH  028%=      5-min Rain = 0
KNH1 200124Z 16012KT 35/14 A2991 RMK A01 T03500140  RH  028%=      5-min Rain = 0
KNH1 200125Z 17013KT 35/14 A2991 RMK A01 T03500140  RH  029%=      5-min Rain = 0
KNH1 200126Z 17011KT 35/14 A2991 RMK A01 T03490141  RH  029%=      5-min Rain = 0
KNH1 200127Z 17012G17KT 35/14 A2991 RMK A01 T03490141  RH  029%=      5-min Rain = 0
KNH1 200128Z 17012KT 35/14 A2991 RMK A01 T03480141  RH  029%=      5-min Rain = 0
KNH1 200129Z 17010KT 35/14 A2991 RMK A01 T03480141  RH  029%=      5-min Rain = 0
KNH1 200130Z 17012G18KT 35/14 A2991 RMK A01 T03470141  RH  029%=      5-min Rain = 0
KNH1 200131Z 17012KT 35/14 A2991 RMK A01 T03470141  RH  029%=      5-min Rain = 0
KNH1 200132Z 17013KT 35/14 A2991 RMK A01 T03460141  RH  029%=      5-min Rain = 0
KNH1 200133Z 17009KT 35/14 A2991 RMK A01 T03460141  RH  029%=      5-min Rain = 0
KNH1 200134Z 17008KT 35/14 A2991 RMK A01 T03460141  RH  029%=      5-min Rain = 0
KNH1 200135Z 17012KT 34/14 A2991 RMK A01 T03440141  RH  030%=      5-min Rain = 0
KNH1 200136Z 17011KT 34/14 A2991 RMK A01 T03440141  RH  030%=      5-min Rain = 0
KNH1 200137Z 17011KT 34/14 A2991 RMK A01 T03440141  RH  029%=      5-min Rain = 0
KNH1 200138Z 17010KT 34/14 A2991 RMK A01 T03440141  RH  030%=      5-min Rain = 0
KNH1 200139Z 17011KT 34/14 A2991 RMK A01 T03430141  RH  030%=      5-min Rain = 0
KNH1 200140Z 17011KT 34/14 A2991 RMK A01 T03430140  RH  030%=      5-min Rain = 0
KNH1 200141Z 17010KT 34/14 A2991 RMK A01 T03430141  RH  030%=      5-min Rain = 0
KNH1 200142Z 17010KT 34/14 A2991 RMK A01 T03430140  RH  030%=      5-min Rain = 0
KNH1 200143Z 16010KT 34/14 A2991 RMK A01 T03420140  RH  030%=      5-min Rain = 0
KNH1 200144Z 17013KT 34/14 A2991 RMK A01 T03420140  RH  030%=      5-min Rain = 0
KNH1 200145Z 17012G17KT 34/14 A2991 RMK A01 T03420140  RH  030%=      5-min Rain = 0
KNH1 200146Z 17013KT 34/14 A2991 RMK A01 T03420140  RH  030%=      5-min Rain = 0
KNH1 200147Z 17011KT 34/14 A2991 RMK A01 T03420140  RH  030%=      5-min Rain = 0
KNH1 200148Z 17013KT 34/14 A2991 RMK A01 T03420140  RH  030%=      5-min Rain = 0
KNH1 200149Z 17013KT 34/14 A2991 RMK A01 T03410140  RH  030%=      5-min Rain = 0
KNH1 200150Z 17011KT 34/14 A2991 RMK A01 T03410140  RH  030%=      5-min Rain = 0
KNH1 200151Z 16010KT 34/14 A2991 RMK A01 T03410140  RH  030%=      5-min Rain = 0
KNH1 200152Z 17009KT 34/14 A2991 RMK A01 T03400140  RH  030%=      5-min Rain = 0
KNH1 200153Z 17010KT 34/14 A2991 RMK A01 T03390140  RH  030%=      5-min Rain = 0
KNH1 200154Z 17011G17KT 34/14 A2991 RMK A01 T03390140  RH  030%=      5-min Rain = 0
KNH1 200155Z 16011G16KT 34/14 A2991 RMK A01 T03390139  RH  030%=      5-min Rain = 0
KNH1 200156Z 17011G17KT 34/14 A2991 RMK A01 T03390140  RH  030%=      5-min Rain = 0
KNH1 200157Z 17009KT 34/14 A2992 RMK A01 T03380139  RH  030%=      5-min Rain = 0
KNH1 200158Z 17010KT 34/14 A2992 RMK A01 T03380140  RH  030%=      5-min Rain = 0
KNH1 200159Z 17012G18KT 34/14 A2992 RMK A01 T03380139  RH  030%=      5-min Rain = 0
KNH1 200200Z 17010KT 34/14 A2992 RMK A01 T03370139  RH  030%=      5-min Rain = 0
KNH1 200201Z 17012KT 34/14 A2992 RMK A01 T03370139  RH  030%=      5-min Rain = 0
KNH1 200202Z 17012KT 34/14 A2992 RMK A01 T03370139  RH  030%=      5-min Rain = 0
KNH1 200203Z 17011KT 34/14 A2992 RMK A01 T03370139  RH  030%=      5-min Rain = 0
KNH1 200204Z 17010KT 34/14 A2992 RMK A01 T03370139  RH  030%=      5-min Rain = 0
KNH1 200205Z 18010KT 34/14 A2992 RMK A01 T03360139  RH  030%=      5-min Rain = 0
KNH1 200206Z 17010KT 34/14 A2992 RMK A01 T03350139  RH  031%=      5-min Rain = 0
KNH1 200207Z 17010KT 34/14 A2992 RMK A01 T03350139  RH  031%=      5-min Rain = 0
KNH1 200208Z 17010KT 34/14 A2992 RMK A01 T03350139  RH  031%=      5-min Rain = 0
KNH1 200209Z 17011KT 34/14 A2992 RMK A01 T03350139  RH  031%=      5-min Rain = 0
KNH1 200210Z 17009KT 33/14 A2992 RMK A01 T03340139  RH  031%=      5-min Rain = 0
KNH1 200211Z 17010KT 33/14 A2992 RMK A01 T03330139  RH  031%=      5-min Rain = 0
KNH1 200212Z 17008KT 33/14 A2992 RMK A01 T03330139  RH  031%=      5-min Rain = 0
KNH1 200213Z 17011KT 33/14 A2992 RMK A01 T03330139  RH  031%=      5-min Rain = 0
KNH1 200214Z 17009KT 33/14 A2992 RMK A01 T03330139  RH  031%=      5-min Rain = 0
KNH1 200215Z 17009KT 33/14 A2992 RMK A01 T03330139  RH  031%=      5-min Rain = 0
KNH1 200216Z 17009KT 33/14 A2992 RMK A01 T03330139  RH  031%=      5-min Rain = 0
KNH1 200217Z 17012KT 33/14 A2992 RMK A01 T03330139  RH  031%=      5-min Rain = 0
KNH1 200218Z 17010KT 33/14 A2992 RMK A01 T03320139  RH  031%=      5-min Rain = 0
KNH1 200219Z 17009KT 33/14 A2992 RMK A01 T03320139  RH  031%=      5-min Rain = 0
KNH1 200220Z 17009KT 33/14 A2992 RMK A01 T03320139  RH  031%=      5-min Rain = 0
KNH1 200221Z 17008KT 33/14 A2992 RMK A01 T03310139  RH  031%=      5-min Rain = 0
KNH1 200222Z 17008KT 33/14 A2992 RMK A01 T03310139  RH  031%=      5-min Rain = 0
KNH1 200223Z 17007KT 33/14 A2992 RMK A01 T03310139  RH  031%=      5-min Rain = 0
KNH1 200224Z 17008KT 33/14 A2993 RMK A01 T03310140  RH  032%=      5-min Rain = 0
KNH1 200225Z 17012KT 33/14 A2993 RMK A01 T03300139  RH  032%=      5-min Rain = 0
KNH1 200226Z 17011KT 33/14 A2993 RMK A01 T03300139  RH  032%=      5-min Rain = 0
KNH1 200227Z 18011KT 33/14 A2993 RMK A01 T03300139  RH  031%=      5-min Rain = 0
KNH1 200228Z 17009KT 33/14 A2993 RMK A01 T03300140  RH  032%=      5-min Rain = 0
KNH1 200229Z 17010KT 33/14 A2993 RMK A01 T03300140  RH  032%=      5-min Rain = 0
KNH1 200230Z 17010KT 33/14 A2993 RMK A01 T03300140  RH  032%=      5-min Rain = 0
KNH1 200231Z 18008KT 33/14 A2993 RMK A01 T03300140  RH  032%=      5-min Rain = 0
KNH1 200232Z 18008KT 33/14 A2993 RMK A01 T03290140  RH  032%=      5-min Rain = 0
KNH1 200233Z 17009KT 33/14 A2993 RMK A01 T03280140  RH  032%=      5-min Rain = 0
KNH1 200234Z 17009KT 33/14 A2993 RMK A01 T03280140  RH  032%=      5-min Rain = 0
KNH1 200235Z 18010KT 33/14 A2993 RMK A01 T03270140  RH  032%=      5-min Rain = 0
KNH1 200236Z 17009KT 33/14 A2993 RMK A01 T03270140  RH  032%=      5-min Rain = 0
KNH1 200237Z 17009KT 33/14 A2993 RMK A01 T03270140  RH  032%=      5-min Rain = 0
KNH1 200238Z 17010KT 33/14 A2993 RMK A01 T03270140  RH  032%=      5-min Rain = 0
KNH1 200239Z 17009KT 33/14 A2993 RMK A01 T03270140  RH  032%=      5-min Rain = 0
KNH1 200240Z 18009KT 33/14 A2993 RMK A01 T03270141  RH  032%=      5-min Rain = 0
KNH1 200241Z 17010G15KT 33/14 A2993 RMK A01 T03270141  RH  033%=      5-min Rain = 0
KNH1 200242Z 17010KT 33/14 A2993 RMK A01 T03260141  RH  033%=      5-min Rain = 0
KNH1 200243Z 18009KT 33/14 A2993 RMK A01 T03270141  RH  033%=      5-min Rain = 0
KNH1 200244Z 17009KT 33/14 A2993 RMK A01 T03260141  RH  033%=      5-min Rain = 0
KNH1 200245Z 17010KT 33/14 A2993 RMK A01 T03260141  RH  033%=      5-min Rain = 0
KNH1 200246Z 17010KT 33/14 A2993 RMK A01 T03260141  RH  033%=      5-min Rain = 0
KNH1 200247Z 17011KT 33/14 A2993 RMK A01 T03250141  RH  033%=      5-min Rain = 0
KNH1 200248Z 18009KT 33/14 A2993 RMK A01 T03250141  RH  033%=      5-min Rain = 0
KNH1 200249Z 17009KT 33/14 A2993 RMK A01 T03250141  RH  033%=      5-min Rain = 0
KNH1 200250Z 17009G14KT 33/14 A2993 RMK A01 T03250141  RH  033%=      5-min Rain = 0
KNH1 200251Z 17011KT 33/14 A2993 RMK A01 T03250141  RH  033%=      5-min Rain = 0
KNH1 200252Z 18010KT 33/14 A2993 RMK A01 T03250141  RH  033%=      5-min Rain = 0
KNH1 200253Z 17012G18KT 33/14 A2993 RMK A01 T03250141  RH  033%=      5-min Rain = 0
KNH1 200254Z 17013KT 32/14 A2993 RMK A01 T03240141  RH  033%=      5-min Rain = 0
KNH1 200255Z 17011KT 33/14 A2993 RMK A01 T03250141  RH  033%=      5-min Rain = 0
KNH1 200256Z 17012KT 33/14 A2993 RMK A01 T03250141  RH  033%=      5-min Rain = 0
KNH1 200257Z 17011KT 33/14 A2993 RMK A01 T03250141  RH  033%=      5-min Rain = 0
KNH1 200258Z 18011KT 33/14 A2994 RMK A01 T03250141  RH  033%=      5-min Rain = 0
KNH1 200259Z 17011KT 33/14 A2994 RMK A01 T03250142  RH  033%=      5-min Rain = 0
KNH1 200300Z 18012KT 32/14 A2994 RMK A01 T03240141  RH  033%=      5-min Rain = 0
KNH1 200301Z 18012KT 33/14 A2994 RMK A01 T03250141  RH  033%=      5-min Rain = 0
KNH1 200302Z 18012KT 33/14 A2994 RMK A01 T03250142  RH  033%=      5-min Rain = 0
KNH1 200303Z 18011KT 33/14 A2994 RMK A01 T03250142  RH  033%=      5-min Rain = 0
KNH1 200304Z 17011KT 32/14 A2994 RMK A01 T03240142  RH  033%=      5-min Rain = 0
KNH1 200305Z 18010KT 32/14 A2994 RMK A01 T03240141  RH  033%=      5-min Rain = 0
KNH1 200306Z 18012KT 32/14 A2994 RMK A01 T03240141  RH  033%=      5-min Rain = 0
KNH1 200307Z 18011KT 32/14 A2994 RMK A01 T03240142  RH  033%=      5-min Rain = 0
KNH1 200308Z 17010G16KT 32/14 A2994 RMK A01 T03230141  RH  033%=      5-min Rain = 0
KNH1 200309Z 17013G18KT 32/14 A2994 RMK A01 T03230141  RH  033%=      5-min Rain = 0
KNH1 200310Z 18012G17KT 32/14 A2994 RMK A01 T03230141  RH  033%=      5-min Rain = 0
KNH1 200311Z 17014KT 32/14 A2994 RMK A01 T03230141  RH  033%=      5-min Rain = 0
KNH1 200312Z 18012KT 32/14 A2994 RMK A01 T03230141  RH  033%=      5-min Rain = 0
KNH1 200313Z 17009KT 32/14 A2994 RMK A01 T03230141  RH  033%=      5-min Rain = 0
KNH1 200314Z 18012KT 32/14 A2994 RMK A01 T03220141  RH  033%=      5-min Rain = 0
KNH1 200315Z 18011KT 32/14 A2994 RMK A01 T03220141  RH  033%=      5-min Rain = 0
KNH1 200316Z 18011G16KT 32/14 A2994 RMK A01 T03220141  RH  033%=      5-min Rain = 0
KNH1 200317Z 18014KT 32/14 A2994 RMK A01 T03220141  RH  033%=      5-min Rain = 0
KNH1 200318Z 18013KT 32/14 A2995 RMK A01 T03210140  RH  033%=      5-min Rain = 0
KNH1 200319Z 17012KT 32/14 A2995 RMK A01 T03210140  RH  033%=      5-min Rain = 0
KNH1 200320Z 18011KT 32/14 A2995 RMK A01 T03210139  RH  033%=      5-min Rain = 0
KNH1 200321Z 18012KT 32/14 A2995 RMK A01 T03210139  RH  033%=      5-min Rain = 0
KNH1 200322Z 18012G17KT 32/14 A2995 RMK A01 T03210139  RH  033%=      5-min Rain = 0
KNH1 200323Z 18012KT 32/14 A2995 RMK A01 T03200138  RH  033%=      5-min Rain = 0
KNH1 200324Z 18013KT 32/14 A2995 RMK A01 T03200137  RH  033%=      5-min Rain = 0
KNH1 200325Z 18012KT 32/14 A2995 RMK A01 T03200137  RH  033%=      5-min Rain = 0
KNH1 200326Z 18012KT 32/14 A2995 RMK A01 T03200137  RH  033%=      5-min Rain = 0
KNH1 200327Z 18011KT 32/14 A2995 RMK A01 T03190137  RH  033%=      5-min Rain = 0
KNH1 200328Z 18013G19KT 32/14 A2995 RMK A01 T03180136  RH  033%=      5-min Rain = 0
KNH1 200329Z 18012KT 32/14 A2995 RMK A01 T03180136  RH  033%=      5-min Rain = 0
KNH1 200330Z 18012KT 32/14 A2995 RMK A01 T03180136  RH  033%=      5-min Rain = 0
KNH1 200331Z 18011KT 32/14 A2995 RMK A01 T03180137  RH  033%=      5-min Rain = 0
KNH1 200332Z 18013KT 32/14 A2995 RMK A01 T03180136  RH  033%=      5-min Rain = 0
KNH1 200333Z 18012G18KT 32/14 A2995 RMK A01 T03170136  RH  033%=      5-min Rain = 0
KNH1 200334Z 18013KT 32/14 A2995 RMK A01 T03170136  RH  033%=      5-min Rain = 0
KNH1 200335Z 18011KT 32/14 A2995 RMK A01 T03170136  RH  033%=      5-min Rain = 0
KNH1 200336Z 18012G17KT 32/14 A2995 RMK A01 T03160136  RH  033%=      5-min Rain = 0
KNH1 200337Z 18011KT 32/14 A2995 RMK A01 T03160135  RH  033%=      5-min Rain = 0
KNH1 200338Z 18014KT 32/14 A2996 RMK A01 T03160135  RH  033%=      5-min Rain = 0
KNH1 200339Z 18013G20KT 32/14 A2996 RMK A01 T03160135  RH  033%=      5-min Rain = 0
KNH1 200340Z 18013KT 32/14 A2996 RMK A01 T03160135  RH  033%=      5-min Rain = 0
KNH1 200341Z 18014G19KT 32/14 A2996 RMK A01 T03150135  RH  033%=      5-min Rain = 0
KNH1 200342Z 18015G20KT 32/13 A2995 RMK A01 T03150134  RH  033%=      5-min Rain = 0
KNH1 200343Z 18015G20KT 32/13 A2996 RMK A01 T03160134  RH  033%=      5-min Rain = 0
KNH1 200344Z 18015KT 32/13 A2996 RMK A01 T03160134  RH  033%=      5-min Rain = 0
KNH1 200345Z 18010G16KT 32/13 A2996 RMK A01 T03160134  RH  033%=      5-min Rain = 0
KNH1 200346Z 18015G20KT 32/13 A2996 RMK A01 T03150133  RH  033%=      5-min Rain = 0
KNH1 200347Z 18016G24KT 32/13 A2996 RMK A01 T03150132  RH  033%=      5-min Rain = 0
KNH1 200348Z 18017KT 32/13 A2996 RMK A01 T03150132  RH  033%=      5-min Rain = 0
KNH1 200349Z 18017KT 32/13 A2996 RMK A01 T03150132  RH  033%=      5-min Rain = 0
KNH1 200350Z 18013KT 32/13 A2996 RMK A01 T03150132  RH  033%=      5-min Rain = 0
KNH1 200351Z 17013KT 31/13 A2996 RMK A01 T03140132  RH  033%=      5-min Rain = 0
KNH1 200352Z 18014KT 31/13 A2996 RMK A01 T03140131  RH  033%=      5-min Rain = 0
KNH1 200353Z 18014KT 31/13 A2996 RMK A01 T03130131  RH  033%=      5-min Rain = 0
KNH1 200354Z 18013KT 31/13 A2996 RMK A01 T03140131  RH  033%=      5-min Rain = 0
KNH1 200355Z 18012KT 31/13 A2996 RMK A01 T03130131  RH  033%=      5-min Rain = 0
KNH1 200356Z 18013KT 31/13 A2996 RMK A01 T03130131  RH  033%=      5-min Rain = 0
KNH1 200357Z 17013KT 31/13 A2996 RMK A01 T03130131  RH  033%=      5-min Rain = 0
KNH1 200358Z 18012G17KT 31/13 A2996 RMK A01 T03120131  RH  033%=      5-min Rain = 0
KNH1 200359Z 18013KT 31/13 A2996 RMK A01 T03120131  RH  033%=      5-min Rain = 0
KNH1 200400Z 18013G18KT 31/13 A2996 RMK A01 T03120130  RH  033%=      5-min Rain = 0
KNH1 200401Z 18012KT 31/13 A2996 RMK A01 T03120130  RH  033%=      5-min Rain = 0
KNH1 200402Z 18014G19KT 31/13 A2996 RMK A01 T03110130  RH  033%=      5-min Rain = 0
KNH1 200403Z 18016KT 31/13 A2996 RMK A01 T03110129  RH  033%=      5-min Rain = 0
KNH1 200404Z 18013KT 31/13 A2996 RMK A01 T03110129  RH  033%=      5-min Rain = 0
KNH1 200405Z 18010G15KT 31/13 A2996 RMK A01 T03110129  RH  033%=      5-min Rain = 0
KNH1 200406Z 18013KT 31/13 A2996 RMK A01 T03100129  RH  033%=      5-min Rain = 0
KNH1 200407Z 18012KT 31/13 A2996 RMK A01 T03100129  RH  033%=      5-min Rain = 0
KNH1 200408Z 18012G17KT 31/13 A2996 RMK A01 T03100129  RH  033%=      5-min Rain = 0
KNH1 200409Z 18012KT 31/13 A2996 RMK A01 T03090128  RH  033%=      5-min Rain = 0
KNH1 200410Z 18011KT 31/13 A2996 RMK A01 T03090128  RH  033%=      5-min Rain = 0
KNH1 200411Z 18015KT 31/13 A2996 RMK A01 T03090128  RH  033%=      5-min Rain = 0
KNH1 200412Z 17011KT 31/13 A2996 RMK A01 T03090128  RH  033%=      5-min Rain = 0
KNH1 200413Z 18016KT 31/13 A2996 RMK A01 T03090128  RH  033%=      5-min Rain = 0
KNH1 200414Z 18012KT 31/13 A2996 RMK A01 T03080127  RH  033%=      5-min Rain = 0
KNH1 200415Z 18012KT 31/13 A2996 RMK A01 T03070127  RH  033%=      5-min Rain = 0
KNH1 200416Z 18012G19KT 31/13 A2996 RMK A01 T03070127  RH  033%=      5-min Rain = 0
KNH1 200417Z 18014G19KT 31/13 A2996 RMK A01 T03070126  RH  033%=      5-min Rain = 0
KNH1 200418Z 18015KT 31/13 A2996 RMK A01 T03070126  RH  033%=      5-min Rain = 0
KNH1 200419Z 18016G21KT 31/13 A2996 RMK A01 T03070126  RH  033%=      5-min Rain = 0
KNH1 200420Z 18015KT 31/13 A2996 RMK A01 T03070125  RH  033%=      5-min Rain = 0
KNH1 200421Z 18013KT 31/13 A2996 RMK A01 T03070125  RH  033%=      5-min Rain = 0
KNH1 200422Z 18014G19KT 31/13 A2997 RMK A01 T03060125  RH  033%=      5-min Rain = 0
KNH1 200423Z 18015G20KT 31/13 A2997 RMK A01 T03060125  RH  033%=      5-min Rain = 0
KNH1 200424Z 18014KT 31/12 A2997 RMK A01 T03060124  RH  033%=      5-min Rain = 0
KNH1 200425Z 18015KT 31/13 A2997 RMK A01 T03060125  RH  033%=      5-min Rain = 0
KNH1 200426Z 18017G25KT 31/12 A2997 RMK A01 T03060124  RH  033%=      5-min Rain = 0
KNH1 200427Z 18017KT 31/12 A2997 RMK A01 T03060123  RH  033%=      5-min Rain = 0
KNH1 200428Z 18015KT 31/12 A2997 RMK A01 T03060123  RH  033%=      5-min Rain = 0
KNH1 200429Z 18015G21KT 31/12 A2997 RMK A01 T03060123  RH  033%=      5-min Rain = 0
KNH1 200430Z 18014KT 31/12 A2997 RMK A01 T03060123  RH  033%=      5-min Rain = 0
KNH1 200431Z 18012KT 31/12 A2997 RMK A01 T03050123  RH  033%=      5-min Rain = 0
KNH1 200432Z 18014G20KT 31/12 A2997 RMK A01 T03050123  RH  033%=      5-min Rain = 0
KNH1 200433Z 18013KT 30/12 A2997 RMK A01 T03040122  RH  033%=      5-min Rain = 0
KNH1 200434Z 18015G20KT 30/12 A2997 RMK A01 T03040123  RH  033%=      5-min Rain = 0
KNH1 200435Z 18012KT 30/12 A2997 RMK A01 T03040122  RH  033%=      5-min Rain = 0
KNH1 200436Z 18013KT 30/12 A2997 RMK A01 T03040122  RH  033%=      5-min Rain = 0
KNH1 200437Z 18014KT 30/12 A2997 RMK A01 T03030122  RH  033%=      5-min Rain = 0
KNH1 200438Z 18014KT 30/12 A2997 RMK A01 T03030121  RH  033%=      5-min Rain = 0
KNH1 200439Z 18014G19KT 30/12 A2997 RMK A01 T03030122  RH  033%=      5-min Rain = 0
KNH1 200440Z 18014KT 30/12 A2997 RMK A01 T03030121  RH  033%=      5-min Rain = 0
KNH1 200441Z 18015KT 30/12 A2997 RMK A01 T03020121  RH  033%=      5-min Rain = 0
KNH1 200442Z 18014KT 30/12 A2997 RMK A01 T03030122  RH  033%=      5-min Rain = 0
KNH1 200443Z 18012KT 30/12 A2997 RMK A01 T03020121  RH  033%=      5-min Rain = 0
KNH1 200444Z 18014KT 30/12 A2997 RMK A01 T03020121  RH  033%=      5-min Rain = 0
KNH1 200445Z 18012G17KT 30/12 A2997 RMK A01 T03010121  RH  033%=      5-min Rain = 0
KNH1 200446Z 18015G21KT 30/12 A2997 RMK A01 T03010121  RH  033%=      5-min Rain = 0
KNH1 200447Z 18013KT 30/12 A2997 RMK A01 T03010121  RH  033%=      5-min Rain = 0
KNH1 200448Z 18015KT 30/12 A2997 RMK A01 T03000121  RH  033%=      5-min Rain = 0
KNH1 200449Z 18014KT 30/12 A2997 RMK A01 T03000121  RH  033%=      5-min Rain = 0
KNH1 200450Z 18012KT 30/12 A2997 RMK A01 T03000121  RH  033%=      5-min Rain = 0
KNH1 200451Z 18013KT 30/12 A2997 RMK A01 T03000121  RH  033%=      5-min Rain = 0
KNH1 200452Z 18012KT 30/12 A2997 RMK A01 T02990121  RH  033%=      5-min Rain = 0
KNH1 200453Z 18015KT 30/12 A2997 RMK A01 T02980121  RH  033%=      5-min Rain = 0
KNH1 200454Z 18013KT 30/12 A2997 RMK A01 T02980121  RH  033%=      5-min Rain = 0
KNH1 200455Z 18015KT 30/12 A2997 RMK A01 T02980121  RH  033%=      5-min Rain = 0
KNH1 200456Z 18014KT 30/12 A2997 RMK A01 T02980121  RH  034%=      5-min Rain = 0
KNH1 200457Z 18012KT 30/12 A2997 RMK A01 T02980121  RH  034%=      5-min Rain = 0
KNH1 200458Z 18015G21KT 30/12 A2997 RMK A01 T02980121  RH  034%=      5-min Rain = 0
KNH1 200459Z 18014KT 30/12 A2997 RMK A01 T02970121  RH  034%=      5-min Rain = 0

Page generated in 0.0721 seconds.